<?xml version='1.0' encoding='UTF-8'?>
<gpx version="1.1" creator="https://www.komoot.de" xmlns="http://www.topografix.com/GPX/1/1" xmlns:xsi="http://www.w3.org/2001/XMLSchema-instance" xsi:schemaLocation="http://www.topografix.com/GPX/1/1 http://www.topografix.com/GPX/1/1/gpx.xsd">
  <metadata>
    <name>MR-Sontbergen</name>
    <author>
      <link href="https://www.komoot.de">
        <text>komoot</text>
        <type>text/html</type>
      </link>
    </author>
  </metadata>
  <trk>
    <name>MR-Sontbergen</name>
    <trkseg>
      <trkpt lat="48.753988" lon="9.986801">
        <ele>642.567108</ele>
        <time>2025-04-06T08:29:12.883Z</time>
      </trkpt>
      <trkpt lat="48.753869" lon="9.987196">
        <ele>642.567108</ele>
        <time>2025-04-06T08:29:17.906Z</time>
      </trkpt>
      <trkpt lat="48.753831" lon="9.987320">
        <ele>642.567108</ele>
        <time>2025-04-06T08:29:19.440Z</time>
      </trkpt>
      <trkpt lat="48.753659" lon="9.987326">
        <ele>642.567108</ele>
        <time>2025-04-06T08:29:22.204Z</time>
      </trkpt>
      <trkpt lat="48.753434" lon="9.987346">
        <ele>642.567108</ele>
        <time>2025-04-06T08:29:25.774Z</time>
      </trkpt>
      <trkpt lat="48.753121" lon="9.987383">
        <ele>642.187472</ele>
        <time>2025-04-06T08:29:30.688Z</time>
      </trkpt>
      <trkpt lat="48.753028" lon="9.987394">
        <ele>641.999637</ele>
        <time>2025-04-06T08:29:32.153Z</time>
      </trkpt>
      <trkpt lat="48.752758" lon="9.987405">
        <ele>641.455762</ele>
        <time>2025-04-06T08:29:36.463Z</time>
      </trkpt>
      <trkpt lat="48.752202" lon="9.987305">
        <ele>640.328342</ele>
        <time>2025-04-06T08:29:45.976Z</time>
      </trkpt>
      <trkpt lat="48.752094" lon="9.987374">
        <ele>640.092364</ele>
        <time>2025-04-06T08:29:48.122Z</time>
      </trkpt>
      <trkpt lat="48.751552" lon="9.986128">
        <ele>638.983184</ele>
        <time>2025-04-06T08:30:08.636Z</time>
      </trkpt>
      <trkpt lat="48.750873" lon="9.985986">
        <ele>639.045797</ele>
        <time>2025-04-06T08:30:24.311Z</time>
      </trkpt>
      <trkpt lat="48.750230" lon="9.985814">
        <ele>639.105441</ele>
        <time>2025-04-06T08:30:38.362Z</time>
      </trkpt>
      <trkpt lat="48.750094" lon="9.985703">
        <ele>639.182985</ele>
        <time>2025-04-06T08:30:41.711Z</time>
      </trkpt>
      <trkpt lat="48.749793" lon="9.985459">
        <ele>639.413330</ele>
        <time>2025-04-06T08:30:49.217Z</time>
      </trkpt>
      <trkpt lat="48.749425" lon="9.985253">
        <ele>639.678074</ele>
        <time>2025-04-06T08:30:57.978Z</time>
      </trkpt>
      <trkpt lat="48.748596" lon="9.985093">
        <ele>640.242088</ele>
        <time>2025-04-06T08:31:17.178Z</time>
      </trkpt>
      <trkpt lat="48.747763" lon="9.984993">
        <ele>642.800530</ele>
        <time>2025-04-06T08:31:37.579Z</time>
      </trkpt>
      <trkpt lat="48.747642" lon="9.982996">
        <ele>647.194034</ele>
        <time>2025-04-06T08:32:12.489Z</time>
      </trkpt>
      <trkpt lat="48.747576" lon="9.982551">
        <ele>647.999111</ele>
        <time>2025-04-06T08:32:20.463Z</time>
      </trkpt>
      <trkpt lat="48.747485" lon="9.982150">
        <ele>648.747647</ele>
        <time>2025-04-06T08:32:27.711Z</time>
      </trkpt>
      <trkpt lat="48.746527" lon="9.977949">
        <ele>653.273803</ele>
        <time>2025-04-06T08:33:36.559Z</time>
      </trkpt>
      <trkpt lat="48.746427" lon="9.977617">
        <ele>653.112391</ele>
        <time>2025-04-06T08:33:41.590Z</time>
      </trkpt>
      <trkpt lat="48.746293" lon="9.977282">
        <ele>652.939117</ele>
        <time>2025-04-06T08:33:46.782Z</time>
      </trkpt>
      <trkpt lat="48.746130" lon="9.976993">
        <ele>652.770937</ele>
        <time>2025-04-06T08:33:51.647Z</time>
      </trkpt>
      <trkpt lat="48.745758" lon="9.976572">
        <ele>652.459639</ele>
        <time>2025-04-06T08:34:00.551Z</time>
      </trkpt>
      <trkpt lat="48.745399" lon="9.976309">
        <ele>652.192251</ele>
        <time>2025-04-06T08:34:08.567Z</time>
      </trkpt>
      <trkpt lat="48.743554" lon="9.974866">
        <ele>651.300327</ele>
        <time>2025-04-06T08:34:53.036Z</time>
      </trkpt>
      <trkpt lat="48.740594" lon="9.973305">
        <ele>650.129572</ele>
        <time>2025-04-06T08:35:58.617Z</time>
      </trkpt>
      <trkpt lat="48.741313" lon="9.969606">
        <ele>653.305803</ele>
        <time>2025-04-06T08:36:56.916Z</time>
      </trkpt>
      <trkpt lat="48.741409" lon="9.968677">
        <ele>654.325734</ele>
        <time>2025-04-06T08:37:11.184Z</time>
      </trkpt>
      <trkpt lat="48.741422" lon="9.968086">
        <ele>654.967114</ele>
        <time>2025-04-06T08:37:20.207Z</time>
      </trkpt>
      <trkpt lat="48.741383" lon="9.967868">
        <ele>655.212112</ele>
        <time>2025-04-06T08:37:23.657Z</time>
      </trkpt>
      <trkpt lat="48.741228" lon="9.967619">
        <ele>655.631366</ele>
        <time>2025-04-06T08:37:28.920Z</time>
      </trkpt>
      <trkpt lat="48.740411" lon="9.966314">
        <ele>658.093275</ele>
        <time>2025-04-06T08:37:56.879Z</time>
      </trkpt>
      <trkpt lat="48.740279" lon="9.966009">
        <ele>658.592411</ele>
        <time>2025-04-06T08:38:03.680Z</time>
      </trkpt>
      <trkpt lat="48.740182" lon="9.965777">
        <ele>658.968251</ele>
        <time>2025-04-06T08:38:08.780Z</time>
      </trkpt>
      <trkpt lat="48.739302" lon="9.963578">
        <ele>661.741209</ele>
        <time>2025-04-06T08:38:49.097Z</time>
      </trkpt>
      <trkpt lat="48.739217" lon="9.963458">
        <ele>661.928565</ele>
        <time>2025-04-06T08:38:51.824Z</time>
      </trkpt>
      <trkpt lat="48.739126" lon="9.963389">
        <ele>662.062327</ele>
        <time>2025-04-06T08:38:54.223Z</time>
      </trkpt>
      <trkpt lat="48.738767" lon="9.963357">
        <ele>662.344121</ele>
        <time>2025-04-06T08:39:02.648Z</time>
      </trkpt>
      <trkpt lat="48.738500" lon="9.963025">
        <ele>662.614690</ele>
        <time>2025-04-06T08:39:10.661Z</time>
      </trkpt>
      <trkpt lat="48.738220" lon="9.962530">
        <ele>662.951697</ele>
        <time>2025-04-06T08:39:20.538Z</time>
      </trkpt>
      <trkpt lat="48.737757" lon="9.961328">
        <ele>663.507340</ele>
        <time>2025-04-06T08:39:41.269Z</time>
      </trkpt>
      <trkpt lat="48.737352" lon="9.959900">
        <ele>663.733885</ele>
        <time>2025-04-06T08:40:04.077Z</time>
      </trkpt>
      <trkpt lat="48.737185" lon="9.959593">
        <ele>663.791884</ele>
        <time>2025-04-06T08:40:09.894Z</time>
      </trkpt>
      <trkpt lat="48.736942" lon="9.959240">
        <ele>663.799615</ele>
        <time>2025-04-06T08:40:17.371Z</time>
      </trkpt>
      <trkpt lat="48.736613" lon="9.958403">
        <ele>663.574063</ele>
        <time>2025-04-06T08:40:31.564Z</time>
      </trkpt>
      <trkpt lat="48.736258" lon="9.957406">
        <ele>663.311786</ele>
        <time>2025-04-06T08:40:47.144Z</time>
      </trkpt>
      <trkpt lat="48.736183" lon="9.957183">
        <ele>663.253840</ele>
        <time>2025-04-06T08:40:50.553Z</time>
      </trkpt>
      <trkpt lat="48.736023" lon="9.956707">
        <ele>663.093208</ele>
        <time>2025-04-06T08:40:57.826Z</time>
      </trkpt>
      <trkpt lat="48.735935" lon="9.956518">
        <ele>663.014610</ele>
        <time>2025-04-06T08:41:00.965Z</time>
      </trkpt>
      <trkpt lat="48.735880" lon="9.956304">
        <ele>662.936583</ele>
        <time>2025-04-06T08:41:04.077Z</time>
      </trkpt>
      <trkpt lat="48.735891" lon="9.956155">
        <ele>662.885646</ele>
        <time>2025-04-06T08:41:06.019Z</time>
      </trkpt>
      <trkpt lat="48.735792" lon="9.955869">
        <ele>662.775913</ele>
        <time>2025-04-06T08:41:10.152Z</time>
      </trkpt>
      <trkpt lat="48.735086" lon="9.954563">
        <ele>662.333268</ele>
        <time>2025-04-06T08:41:32.908Z</time>
      </trkpt>
      <trkpt lat="48.733029" lon="9.950805">
        <ele>663.982295</ele>
        <time>2025-04-06T08:42:43.361Z</time>
      </trkpt>
      <trkpt lat="48.731933" lon="9.949094">
        <ele>666.253492</ele>
        <time>2025-04-06T08:43:19.758Z</time>
      </trkpt>
      <trkpt lat="48.729959" lon="9.946181">
        <ele>670.269582</ele>
        <time>2025-04-06T08:44:22.931Z</time>
      </trkpt>
      <trkpt lat="48.728131" lon="9.943590">
        <ele>673.335144</ele>
        <time>2025-04-06T08:45:19.665Z</time>
      </trkpt>
      <trkpt lat="48.727681" lon="9.943032">
        <ele>674.025684</ele>
        <time>2025-04-06T08:45:32.972Z</time>
      </trkpt>
      <trkpt lat="48.726977" lon="9.942505">
        <ele>674.194714</ele>
        <time>2025-04-06T08:45:50.701Z</time>
      </trkpt>
      <trkpt lat="48.726813" lon="9.942340">
        <ele>674.236378</ele>
        <time>2025-04-06T08:45:55.088Z</time>
      </trkpt>
      <trkpt lat="48.726351" lon="9.941879">
        <ele>674.353453</ele>
        <time>2025-04-06T08:46:06.463Z</time>
      </trkpt>
      <trkpt lat="48.726052" lon="9.941434">
        <ele>674.129516</ele>
        <time>2025-04-06T08:46:14.211Z</time>
      </trkpt>
      <trkpt lat="48.725470" lon="9.941635">
        <ele>673.032563</ele>
        <time>2025-04-06T08:46:33.327Z</time>
      </trkpt>
      <trkpt lat="48.724741" lon="9.942109">
        <ele>671.574836</ele>
        <time>2025-04-06T08:46:57.698Z</time>
      </trkpt>
      <trkpt lat="48.722904" lon="9.943360">
        <ele>668.802620</ele>
        <time>2025-04-06T08:48:03.000Z</time>
      </trkpt>
      <trkpt lat="48.721686" lon="9.943979">
        <ele>669.467194</ele>
        <time>2025-04-06T08:48:47.089Z</time>
      </trkpt>
      <trkpt lat="48.721080" lon="9.944231">
        <ele>669.763546</ele>
        <time>2025-04-06T08:49:08.303Z</time>
      </trkpt>
      <trkpt lat="48.720466" lon="9.944366">
        <ele>669.562910</ele>
        <time>2025-04-06T08:49:29.452Z</time>
      </trkpt>
      <trkpt lat="48.720290" lon="9.944369">
        <ele>669.505991</ele>
        <time>2025-04-06T08:49:35.506Z</time>
      </trkpt>
      <trkpt lat="48.719264" lon="9.944706">
        <ele>669.012626</ele>
        <time>2025-04-06T08:50:10.014Z</time>
      </trkpt>
      <trkpt lat="48.718498" lon="9.945036">
        <ele>667.744546</ele>
        <time>2025-04-06T08:50:34.709Z</time>
      </trkpt>
      <trkpt lat="48.718189" lon="9.945163">
        <ele>667.234729</ele>
        <time>2025-04-06T08:50:40.405Z</time>
      </trkpt>
      <trkpt lat="48.716710" lon="9.945400">
        <ele>665.280134</ele>
        <time>2025-04-06T08:51:09.479Z</time>
      </trkpt>
      <trkpt lat="48.715212" lon="9.945691">
        <ele>663.258855</ele>
        <time>2025-04-06T08:51:37.632Z</time>
      </trkpt>
      <trkpt lat="48.712849" lon="9.946112">
        <ele>659.565991</ele>
        <time>2025-04-06T08:52:20.482Z</time>
      </trkpt>
      <trkpt lat="48.711479" lon="9.946355">
        <ele>658.748688</ele>
        <time>2025-04-06T08:52:47.003Z</time>
      </trkpt>
      <trkpt lat="48.708045" lon="9.946231">
        <ele>661.253995</ele>
        <time>2025-04-06T08:54:04.402Z</time>
      </trkpt>
      <trkpt lat="48.707893" lon="9.942910">
        <ele>663.290648</ele>
        <time>2025-04-06T08:54:53.670Z</time>
      </trkpt>
      <trkpt lat="48.707801" lon="9.941021">
        <ele>663.943985</ele>
        <time>2025-04-06T08:55:22.595Z</time>
      </trkpt>
      <trkpt lat="48.707699" lon="9.940796">
        <ele>663.931059</ele>
        <time>2025-04-06T08:55:26.619Z</time>
      </trkpt>
      <trkpt lat="48.706340" lon="9.939245">
        <ele>663.707637</ele>
        <time>2025-04-06T08:56:02.229Z</time>
      </trkpt>
      <trkpt lat="48.705381" lon="9.938170">
        <ele>663.409671</ele>
        <time>2025-04-06T08:56:28.209Z</time>
      </trkpt>
      <trkpt lat="48.704214" lon="9.936863">
        <ele>663.454312</ele>
        <time>2025-04-06T08:56:59.931Z</time>
      </trkpt>
      <trkpt lat="48.703470" lon="9.936074">
        <ele>664.157183</ele>
        <time>2025-04-06T08:57:20.081Z</time>
      </trkpt>
      <trkpt lat="48.701650" lon="9.934560">
        <ele>666.924098</ele>
        <time>2025-04-06T08:58:09.704Z</time>
      </trkpt>
      <trkpt lat="48.701273" lon="9.934281">
        <ele>667.496168</ele>
        <time>2025-04-06T08:58:19.563Z</time>
      </trkpt>
      <trkpt lat="48.699067" lon="9.933848">
        <ele>670.593398</ele>
        <time>2025-04-06T08:59:10.903Z</time>
      </trkpt>
      <trkpt lat="48.697392" lon="9.933326">
        <ele>676.549290</ele>
        <time>2025-04-06T08:59:55.367Z</time>
      </trkpt>
      <trkpt lat="48.695576" lon="9.932738">
        <ele>682.953447</ele>
        <time>2025-04-06T09:00:42.707Z</time>
      </trkpt>
      <trkpt lat="48.693980" lon="9.932244">
        <ele>687.188123</ele>
        <time>2025-04-06T09:01:22.035Z</time>
      </trkpt>
      <trkpt lat="48.691523" lon="9.932287">
        <ele>692.650555</ele>
        <time>2025-04-06T09:02:21.872Z</time>
      </trkpt>
      <trkpt lat="48.690770" lon="9.932304">
        <ele>691.469393</ele>
        <time>2025-04-06T09:02:36.090Z</time>
      </trkpt>
      <trkpt lat="48.690536" lon="9.932310">
        <ele>691.102327</ele>
        <time>2025-04-06T09:02:39.908Z</time>
      </trkpt>
      <trkpt lat="48.690457" lon="9.932311">
        <ele>690.978417</ele>
        <time>2025-04-06T09:02:41.150Z</time>
      </trkpt>
      <trkpt lat="48.690348" lon="9.932346">
        <ele>690.803659</ele>
        <time>2025-04-06T09:02:42.862Z</time>
      </trkpt>
      <trkpt lat="48.690234" lon="9.932495">
        <ele>690.567504</ele>
        <time>2025-04-06T09:02:45.159Z</time>
      </trkpt>
      <trkpt lat="48.690131" lon="9.932387">
        <ele>690.371031</ele>
        <time>2025-04-06T09:02:47.156Z</time>
      </trkpt>
      <trkpt lat="48.689958" lon="9.932348">
        <ele>689.820276</ele>
        <time>2025-04-06T09:02:49.932Z</time>
      </trkpt>
      <trkpt lat="48.689845" lon="9.932339">
        <ele>689.413950</ele>
        <time>2025-04-06T09:02:51.717Z</time>
      </trkpt>
      <trkpt lat="48.689284" lon="9.932325">
        <ele>687.399211</ele>
        <time>2025-04-06T09:03:00.545Z</time>
      </trkpt>
      <trkpt lat="48.688947" lon="9.932317">
        <ele>686.188947</ele>
        <time>2025-04-06T09:03:06.123Z</time>
      </trkpt>
      <trkpt lat="48.688576" lon="9.932309">
        <ele>684.856608</ele>
        <time>2025-04-06T09:03:12.426Z</time>
      </trkpt>
      <trkpt lat="48.688425" lon="9.932319">
        <ele>684.313872</ele>
        <time>2025-04-06T09:03:15.156Z</time>
      </trkpt>
      <trkpt lat="48.688304" lon="9.932371">
        <ele>683.862232</ele>
        <time>2025-04-06T09:03:17.556Z</time>
      </trkpt>
      <trkpt lat="48.688153" lon="9.932588">
        <ele>684.161045</ele>
        <time>2025-04-06T09:03:21.910Z</time>
      </trkpt>
      <trkpt lat="48.687959" lon="9.932431">
        <ele>684.491508</ele>
        <time>2025-04-06T09:03:26.843Z</time>
      </trkpt>
      <trkpt lat="48.687762" lon="9.932367">
        <ele>684.794220</ele>
        <time>2025-04-06T09:03:31.472Z</time>
      </trkpt>
      <trkpt lat="48.687554" lon="9.932394">
        <ele>685.107873</ele>
        <time>2025-04-06T09:03:36.466Z</time>
      </trkpt>
      <trkpt lat="48.687181" lon="9.932511">
        <ele>685.680173</ele>
        <time>2025-04-06T09:03:45.825Z</time>
      </trkpt>
      <trkpt lat="48.687091" lon="9.932539">
        <ele>685.818216</ele>
        <time>2025-04-06T09:03:48.131Z</time>
      </trkpt>
      <trkpt lat="48.686320" lon="9.932819">
        <ele>686.840009</ele>
        <time>2025-04-06T09:04:07.702Z</time>
      </trkpt>
      <trkpt lat="48.685514" lon="9.933228">
        <ele>687.641219</ele>
        <time>2025-04-06T09:04:27.516Z</time>
      </trkpt>
      <trkpt lat="48.684803" lon="9.933438">
        <ele>687.931462</ele>
        <time>2025-04-06T09:04:41.685Z</time>
      </trkpt>
      <trkpt lat="48.684825" lon="9.933574">
        <ele>687.555590</ele>
        <time>2025-04-06T09:04:43.230Z</time>
      </trkpt>
      <trkpt lat="48.684668" lon="9.933643">
        <ele>686.890904</ele>
        <time>2025-04-06T09:04:45.883Z</time>
      </trkpt>
      <trkpt lat="48.684438" lon="9.934100">
        <ele>685.348346</ele>
        <time>2025-04-06T09:04:51.854Z</time>
      </trkpt>
      <trkpt lat="48.684404" lon="9.934211">
        <ele>685.019872</ele>
        <time>2025-04-06T09:04:53.109Z</time>
      </trkpt>
      <trkpt lat="48.684437" lon="9.934685">
        <ele>683.740420</ele>
        <time>2025-04-06T09:04:57.926Z</time>
      </trkpt>
      <trkpt lat="48.684473" lon="9.935076">
        <ele>682.680671</ele>
        <time>2025-04-06T09:05:01.848Z</time>
      </trkpt>
      <trkpt lat="48.684492" lon="9.935279">
        <ele>682.130294</ele>
        <time>2025-04-06T09:05:03.857Z</time>
      </trkpt>
      <trkpt lat="48.684500" lon="9.935598">
        <ele>681.273360</ele>
        <time>2025-04-06T09:05:06.996Z</time>
      </trkpt>
      <trkpt lat="48.684519" lon="9.936334">
        <ele>678.816131</ele>
        <time>2025-04-06T09:05:14.222Z</time>
      </trkpt>
      <trkpt lat="48.684027" lon="9.936587">
        <ele>676.085465</ele>
        <time>2025-04-06T09:05:22.433Z</time>
      </trkpt>
      <trkpt lat="48.683887" lon="9.936599">
        <ele>675.348515</ele>
        <time>2025-04-06T09:05:24.652Z</time>
      </trkpt>
      <trkpt lat="48.683357" lon="9.936683">
        <ele>672.547882</ele>
        <time>2025-04-06T09:05:33.000Z</time>
      </trkpt>
      <trkpt lat="48.682919" lon="9.936796">
        <ele>670.433198</ele>
        <time>2025-04-06T09:05:39.967Z</time>
      </trkpt>
      <trkpt lat="48.682652" lon="9.936865">
        <ele>669.256471</ele>
        <time>2025-04-06T09:05:44.262Z</time>
      </trkpt>
      <trkpt lat="48.682275" lon="9.936947">
        <ele>667.601818</ele>
        <time>2025-04-06T09:05:50.367Z</time>
      </trkpt>
      <trkpt lat="48.681135" lon="9.937234">
        <ele>662.812753</ele>
        <time>2025-04-06T09:06:09.655Z</time>
      </trkpt>
      <trkpt lat="48.680488" lon="9.937227">
        <ele>660.599597</ele>
        <time>2025-04-06T09:06:20.534Z</time>
      </trkpt>
      <trkpt lat="48.680223" lon="9.937990">
        <ele>658.652531</ele>
        <time>2025-04-06T09:06:30.464Z</time>
      </trkpt>
      <trkpt lat="48.680152" lon="9.938206">
        <ele>658.107594</ele>
        <time>2025-04-06T09:06:33.210Z</time>
      </trkpt>
      <trkpt lat="48.679964" lon="9.938773">
        <ele>656.659847</ele>
        <time>2025-04-06T09:06:40.087Z</time>
      </trkpt>
      <trkpt lat="48.679740" lon="9.939432">
        <ele>654.956481</ele>
        <time>2025-04-06T09:06:48.135Z</time>
      </trkpt>
      <trkpt lat="48.679438" lon="9.940321">
        <ele>652.658892</ele>
        <time>2025-04-06T09:06:59.378Z</time>
      </trkpt>
      <trkpt lat="48.679433" lon="9.940619">
        <ele>651.973825</ele>
        <time>2025-04-06T09:07:02.705Z</time>
      </trkpt>
      <trkpt lat="48.679261" lon="9.940832">
        <ele>651.218521</ele>
        <time>2025-04-06T09:07:06.427Z</time>
      </trkpt>
      <trkpt lat="48.679156" lon="9.940891">
        <ele>650.952355</ele>
        <time>2025-04-06T09:07:08.187Z</time>
      </trkpt>
      <trkpt lat="48.678092" lon="9.942178">
        <ele>647.716113</ele>
        <time>2025-04-06T09:07:31.561Z</time>
      </trkpt>
      <trkpt lat="48.677873" lon="9.942434">
        <ele>647.058629</ele>
        <time>2025-04-06T09:07:36.506Z</time>
      </trkpt>
      <trkpt lat="48.677578" lon="9.942823">
        <ele>646.575157</ele>
        <time>2025-04-06T09:07:43.678Z</time>
      </trkpt>
      <trkpt lat="48.677390" lon="9.943025">
        <ele>646.313661</ele>
        <time>2025-04-06T09:07:47.992Z</time>
      </trkpt>
      <trkpt lat="48.677314" lon="9.943240">
        <ele>646.130986</ele>
        <time>2025-04-06T09:07:50.948Z</time>
      </trkpt>
      <trkpt lat="48.677071" lon="9.944386">
        <ele>645.229380</ele>
        <time>2025-04-06T09:08:06.418Z</time>
      </trkpt>
      <trkpt lat="48.676946" lon="9.944900">
        <ele>644.848724</ele>
        <time>2025-04-06T09:08:13.714Z</time>
      </trkpt>
      <trkpt lat="48.676750" lon="9.945468">
        <ele>644.484293</ele>
        <time>2025-04-06T09:08:22.248Z</time>
      </trkpt>
      <trkpt lat="48.676720" lon="9.945548">
        <ele>644.431978</ele>
        <time>2025-04-06T09:08:23.474Z</time>
      </trkpt>
      <trkpt lat="48.676074" lon="9.947272">
        <ele>643.202841</ele>
        <time>2025-04-06T09:08:49.058Z</time>
      </trkpt>
      <trkpt lat="48.675878" lon="9.947680">
        <ele>642.585159</ele>
        <time>2025-04-06T09:08:55.356Z</time>
      </trkpt>
      <trkpt lat="48.675199" lon="9.949641">
        <ele>639.751220</ele>
        <time>2025-04-06T09:09:21.013Z</time>
      </trkpt>
      <trkpt lat="48.675026" lon="9.950096">
        <ele>638.678467</ele>
        <time>2025-04-06T09:09:26.774Z</time>
      </trkpt>
      <trkpt lat="48.674787" lon="9.950800">
        <ele>637.061085</ele>
        <time>2025-04-06T09:09:35.245Z</time>
      </trkpt>
      <trkpt lat="48.674624" lon="9.951645">
        <ele>635.262413</ele>
        <time>2025-04-06T09:09:44.507Z</time>
      </trkpt>
      <trkpt lat="48.674506" lon="9.953745">
        <ele>630.838589</ele>
        <time>2025-04-06T09:10:07.317Z</time>
      </trkpt>
      <trkpt lat="48.674337" lon="9.955408">
        <ele>627.091260</ele>
        <time>2025-04-06T09:10:25.345Z</time>
      </trkpt>
      <trkpt lat="48.674243" lon="9.955782">
        <ele>626.133211</ele>
        <time>2025-04-06T09:10:29.545Z</time>
      </trkpt>
      <trkpt lat="48.673966" lon="9.956619">
        <ele>623.891791</ele>
        <time>2025-04-06T09:10:39.317Z</time>
      </trkpt>
      <trkpt lat="48.673709" lon="9.957276">
        <ele>622.064804</ele>
        <time>2025-04-06T09:10:47.317Z</time>
      </trkpt>
      <trkpt lat="48.673204" lon="9.958154">
        <ele>619.298319</ele>
        <time>2025-04-06T09:10:59.607Z</time>
      </trkpt>
      <trkpt lat="48.672962" lon="9.958789">
        <ele>617.556329</ele>
        <time>2025-04-06T09:11:07.277Z</time>
      </trkpt>
      <trkpt lat="48.672792" lon="9.959923">
        <ele>614.987569</ele>
        <time>2025-04-06T09:11:19.653Z</time>
      </trkpt>
      <trkpt lat="48.672740" lon="9.960093">
        <ele>614.632769</ele>
        <time>2025-04-06T09:11:21.659Z</time>
      </trkpt>
      <trkpt lat="48.672668" lon="9.960236">
        <ele>614.292224</ele>
        <time>2025-04-06T09:11:23.576Z</time>
      </trkpt>
      <trkpt lat="48.672039" lon="9.960952">
        <ele>612.035595</ele>
        <time>2025-04-06T09:11:36.632Z</time>
      </trkpt>
      <trkpt lat="48.671566" lon="9.961920">
        <ele>609.635910</ele>
        <time>2025-04-06T09:11:50.397Z</time>
      </trkpt>
      <trkpt lat="48.671385" lon="9.962229">
        <ele>608.742268</ele>
        <time>2025-04-06T09:11:54.994Z</time>
      </trkpt>
      <trkpt lat="48.670995" lon="9.963276">
        <ele>606.141498</ele>
        <time>2025-04-06T09:12:07.936Z</time>
      </trkpt>
      <trkpt lat="48.670466" lon="9.964440">
        <ele>602.408180</ele>
        <time>2025-04-06T09:12:22.403Z</time>
      </trkpt>
      <trkpt lat="48.669811" lon="9.965702">
        <ele>597.481233</ele>
        <time>2025-04-06T09:12:38.176Z</time>
      </trkpt>
      <trkpt lat="48.669613" lon="9.966043">
        <ele>596.333604</ele>
        <time>2025-04-06T09:12:42.777Z</time>
      </trkpt>
      <trkpt lat="48.669277" lon="9.967472">
        <ele>596.232882</ele>
        <time>2025-04-06T09:13:00.040Z</time>
      </trkpt>
      <trkpt lat="48.669166" lon="9.968958">
        <ele>597.661606</ele>
        <time>2025-04-06T09:13:24.370Z</time>
      </trkpt>
      <trkpt lat="48.669106" lon="9.968944">
        <ele>598.034363</ele>
        <time>2025-04-06T09:13:25.968Z</time>
      </trkpt>
      <trkpt lat="48.668203" lon="9.968608">
        <ele>603.743865</ele>
        <time>2025-04-06T09:13:53.016Z</time>
      </trkpt>
      <trkpt lat="48.667808" lon="9.968384">
        <ele>606.333737</ele>
        <time>2025-04-06T09:14:06.552Z</time>
      </trkpt>
      <trkpt lat="48.666058" lon="9.967011">
        <ele>619.642228</ele>
        <time>2025-04-06T09:15:06.168Z</time>
      </trkpt>
      <trkpt lat="48.665968" lon="9.967003">
        <ele>619.947973</ele>
        <time>2025-04-06T09:15:08.740Z</time>
      </trkpt>
      <trkpt lat="48.665894" lon="9.967117">
        <ele>620.305991</ele>
        <time>2025-04-06T09:15:11.660Z</time>
      </trkpt>
      <trkpt lat="48.665585" lon="9.968482">
        <ele>623.537929</ele>
        <time>2025-04-06T09:15:35.583Z</time>
      </trkpt>
      <trkpt lat="48.664317" lon="9.967481">
        <ele>627.439755</ele>
        <time>2025-04-06T09:16:07.964Z</time>
      </trkpt>
      <trkpt lat="48.663901" lon="9.966673">
        <ele>628.943706</ele>
        <time>2025-04-06T09:16:23.905Z</time>
      </trkpt>
      <trkpt lat="48.663777" lon="9.966521">
        <ele>629.298320</ele>
        <time>2025-04-06T09:16:27.842Z</time>
      </trkpt>
      <trkpt lat="48.663377" lon="9.966157">
        <ele>631.076769</ele>
        <time>2025-04-06T09:16:39.764Z</time>
      </trkpt>
      <trkpt lat="48.663156" lon="9.965906">
        <ele>632.340383</ele>
        <time>2025-04-06T09:16:47.084Z</time>
      </trkpt>
      <trkpt lat="48.662898" lon="9.965402">
        <ele>634.266714</ele>
        <time>2025-04-06T09:16:58.469Z</time>
      </trkpt>
      <trkpt lat="48.662815" lon="9.965166">
        <ele>635.074439</ele>
        <time>2025-04-06T09:17:03.300Z</time>
      </trkpt>
      <trkpt lat="48.662557" lon="9.964213">
        <ele>638.099290</ele>
        <time>2025-04-06T09:17:21.317Z</time>
      </trkpt>
      <trkpt lat="48.662411" lon="9.963709">
        <ele>639.317687</ele>
        <time>2025-04-06T09:17:30.587Z</time>
      </trkpt>
      <trkpt lat="48.662256" lon="9.963320">
        <ele>640.323467</ele>
        <time>2025-04-06T09:17:38.037Z</time>
      </trkpt>
      <trkpt lat="48.661972" lon="9.962705">
        <ele>641.984788</ele>
        <time>2025-04-06T09:17:50.062Z</time>
      </trkpt>
      <trkpt lat="48.661611" lon="9.962005">
        <ele>643.939109</ele>
        <time>2025-04-06T09:18:04.052Z</time>
      </trkpt>
      <trkpt lat="48.661153" lon="9.961100">
        <ele>645.968035</ele>
        <time>2025-04-06T09:18:22.133Z</time>
      </trkpt>
      <trkpt lat="48.660416" lon="9.959860">
        <ele>648.804423</ele>
        <time>2025-04-06T09:18:48.809Z</time>
      </trkpt>
      <trkpt lat="48.659379" lon="9.958201">
        <ele>650.182753</ele>
        <time>2025-04-06T09:19:23.089Z</time>
      </trkpt>
      <trkpt lat="48.658873" lon="9.958407">
        <ele>649.711237</ele>
        <time>2025-04-06T09:19:32.920Z</time>
      </trkpt>
      <trkpt lat="48.658539" lon="9.958532">
        <ele>648.965095</ele>
        <time>2025-04-06T09:19:38.858Z</time>
      </trkpt>
      <trkpt lat="48.658222" lon="9.958647">
        <ele>648.258163</ele>
        <time>2025-04-06T09:19:44.243Z</time>
      </trkpt>
      <trkpt lat="48.655387" lon="9.958991">
        <ele>641.253014</ele>
        <time>2025-04-06T09:20:31.926Z</time>
      </trkpt>
      <trkpt lat="48.655165" lon="9.959021">
        <ele>640.876789</ele>
        <time>2025-04-06T09:20:35.699Z</time>
      </trkpt>
      <trkpt lat="48.654919" lon="9.959102">
        <ele>640.451833</ele>
        <time>2025-04-06T09:20:40.002Z</time>
      </trkpt>
      <trkpt lat="48.654636" lon="9.959246">
        <ele>639.947865</ele>
        <time>2025-04-06T09:20:45.206Z</time>
      </trkpt>
      <trkpt lat="48.654428" lon="9.959407">
        <ele>639.553525</ele>
        <time>2025-04-06T09:20:49.413Z</time>
      </trkpt>
      <trkpt lat="48.654105" lon="9.959707">
        <ele>638.913857</ele>
        <time>2025-04-06T09:20:56.680Z</time>
      </trkpt>
      <trkpt lat="48.653914" lon="9.959936">
        <ele>638.671090</ele>
        <time>2025-04-06T09:21:01.608Z</time>
      </trkpt>
      <trkpt lat="48.653532" lon="9.960525">
        <ele>639.394786</ele>
        <time>2025-04-06T09:21:13.515Z</time>
      </trkpt>
      <trkpt lat="48.653306" lon="9.961093">
        <ele>639.976150</ele>
        <time>2025-04-06T09:21:23.664Z</time>
      </trkpt>
      <trkpt lat="48.653110" lon="9.961851">
        <ele>640.689848</ele>
        <time>2025-04-06T09:21:36.427Z</time>
      </trkpt>
      <trkpt lat="48.652917" lon="9.962368">
        <ele>640.988785</ele>
        <time>2025-04-06T09:21:45.799Z</time>
      </trkpt>
      <trkpt lat="48.652552" lon="9.963018">
        <ele>641.004234</ele>
        <time>2025-04-06T09:21:58.668Z</time>
      </trkpt>
      <trkpt lat="48.652267" lon="9.963382">
        <ele>641.014457</ele>
        <time>2025-04-06T09:22:06.377Z</time>
      </trkpt>
      <trkpt lat="48.651804" lon="9.963821">
        <ele>641.029433</ele>
        <time>2025-04-06T09:22:16.437Z</time>
      </trkpt>
      <trkpt lat="48.651694" lon="9.963875">
        <ele>641.032603</ele>
        <time>2025-04-06T09:22:18.478Z</time>
      </trkpt>
      <trkpt lat="48.651585" lon="9.963892">
        <ele>641.017927</ele>
        <time>2025-04-06T09:22:20.376Z</time>
      </trkpt>
      <trkpt lat="48.651424" lon="9.963857">
        <ele>640.986420</ele>
        <time>2025-04-06T09:22:23.126Z</time>
      </trkpt>
      <trkpt lat="48.651200" lon="9.963737">
        <ele>640.940392</ele>
        <time>2025-04-06T09:22:27.186Z</time>
      </trkpt>
      <trkpt lat="48.651131" lon="9.963807">
        <ele>640.924302</ele>
        <time>2025-04-06T09:22:28.614Z</time>
      </trkpt>
      <trkpt lat="48.650826" lon="9.963561">
        <ele>640.857358</ele>
        <time>2025-04-06T09:22:35.101Z</time>
      </trkpt>
      <trkpt lat="48.650419" lon="9.963324">
        <ele>640.772886</ele>
        <time>2025-04-06T09:22:44.358Z</time>
      </trkpt>
      <trkpt lat="48.649208" lon="9.962754">
        <ele>642.564463</ele>
        <time>2025-04-06T09:23:14.607Z</time>
      </trkpt>
      <trkpt lat="48.648810" lon="9.962492">
        <ele>643.565920</ele>
        <time>2025-04-06T09:23:25.106Z</time>
      </trkpt>
      <trkpt lat="48.648004" lon="9.961816">
        <ele>645.498920</ele>
        <time>2025-04-06T09:23:46.472Z</time>
      </trkpt>
      <trkpt lat="48.647258" lon="9.961256">
        <ele>646.987048</ele>
        <time>2025-04-06T09:24:05.450Z</time>
      </trkpt>
      <trkpt lat="48.646213" lon="9.960552">
        <ele>649.715857</ele>
        <time>2025-04-06T09:24:32.381Z</time>
      </trkpt>
      <trkpt lat="48.645922" lon="9.960461">
        <ele>650.617279</ele>
        <time>2025-04-06T09:24:39.617Z</time>
      </trkpt>
      <trkpt lat="48.645868" lon="9.960451">
        <ele>650.782315</ele>
        <time>2025-04-06T09:24:40.937Z</time>
      </trkpt>
      <trkpt lat="48.645632" lon="9.960430">
        <ele>651.499479</ele>
        <time>2025-04-06T09:24:46.690Z</time>
      </trkpt>
      <trkpt lat="48.645401" lon="9.960382">
        <ele>652.206813</ele>
        <time>2025-04-06T09:24:52.501Z</time>
      </trkpt>
      <trkpt lat="48.644775" lon="9.960168">
        <ele>654.420238</ele>
        <time>2025-04-06T09:25:08.696Z</time>
      </trkpt>
      <trkpt lat="48.644574" lon="9.960065">
        <ele>655.328918</ele>
        <time>2025-04-06T09:25:14.036Z</time>
      </trkpt>
      <trkpt lat="48.644528" lon="9.960033">
        <ele>655.545702</ele>
        <time>2025-04-06T09:25:15.316Z</time>
      </trkpt>
      <trkpt lat="48.644424" lon="9.959959">
        <ele>656.037791</ele>
        <time>2025-04-06T09:25:18.241Z</time>
      </trkpt>
      <trkpt lat="48.644318" lon="9.959754">
        <ele>656.774281</ele>
        <time>2025-04-06T09:25:22.639Z</time>
      </trkpt>
      <trkpt lat="48.644263" lon="9.959558">
        <ele>657.376755</ele>
        <time>2025-04-06T09:25:26.236Z</time>
      </trkpt>
      <trkpt lat="48.644222" lon="9.959165">
        <ele>658.502432</ele>
        <time>2025-04-06T09:25:33.006Z</time>
      </trkpt>
      <trkpt lat="48.644196" lon="9.959077">
        <ele>658.775166</ele>
        <time>2025-04-06T09:25:34.639Z</time>
      </trkpt>
      <trkpt lat="48.644099" lon="9.958936">
        <ele>659.351068</ele>
        <time>2025-04-06T09:25:38.175Z</time>
      </trkpt>
      <trkpt lat="48.643516" lon="9.958747">
        <ele>661.827634</ele>
        <time>2025-04-06T09:25:53.936Z</time>
      </trkpt>
      <trkpt lat="48.643413" lon="9.958647">
        <ele>662.294081</ele>
        <time>2025-04-06T09:25:57.129Z</time>
      </trkpt>
      <trkpt lat="48.643256" lon="9.958324">
        <ele>663.303988</ele>
        <time>2025-04-06T09:26:04.095Z</time>
      </trkpt>
      <trkpt lat="48.643156" lon="9.958210">
        <ele>663.781198</ele>
        <time>2025-04-06T09:26:07.406Z</time>
      </trkpt>
      <trkpt lat="48.643014" lon="9.958116">
        <ele>664.371974</ele>
        <time>2025-04-06T09:26:11.490Z</time>
      </trkpt>
      <trkpt lat="48.642838" lon="9.958049">
        <ele>665.063735</ele>
        <time>2025-04-06T09:26:16.217Z</time>
      </trkpt>
      <trkpt lat="48.642479" lon="9.958026">
        <ele>666.433369</ele>
        <time>2025-04-06T09:26:25.365Z</time>
      </trkpt>
      <trkpt lat="48.642289" lon="9.957981">
        <ele>667.166411</ele>
        <time>2025-04-06T09:26:30.115Z</time>
      </trkpt>
      <trkpt lat="48.641842" lon="9.957790">
        <ele>667.688407</ele>
        <time>2025-04-06T09:26:41.030Z</time>
      </trkpt>
      <trkpt lat="48.641642" lon="9.957690">
        <ele>667.343303</ele>
        <time>2025-04-06T09:26:45.579Z</time>
      </trkpt>
      <trkpt lat="48.641256" lon="9.957470">
        <ele>666.667511</ele>
        <time>2025-04-06T09:26:53.495Z</time>
      </trkpt>
      <trkpt lat="48.641022" lon="9.957380">
        <ele>666.271934</ele>
        <time>2025-04-06T09:26:57.541Z</time>
      </trkpt>
      <trkpt lat="48.640210" lon="9.957046">
        <ele>664.950506</ele>
        <time>2025-04-06T09:27:11.277Z</time>
      </trkpt>
      <trkpt lat="48.640013" lon="9.956970">
        <ele>664.702707</ele>
        <time>2025-04-06T09:27:14.613Z</time>
      </trkpt>
      <trkpt lat="48.639769" lon="9.956876">
        <ele>664.395815</ele>
        <time>2025-04-06T09:27:18.805Z</time>
      </trkpt>
      <trkpt lat="48.639686" lon="9.956844">
        <ele>664.291417</ele>
        <time>2025-04-06T09:27:20.279Z</time>
      </trkpt>
      <trkpt lat="48.639342" lon="9.956712">
        <ele>663.858853</ele>
        <time>2025-04-06T09:27:26.636Z</time>
      </trkpt>
      <trkpt lat="48.638331" lon="9.956421">
        <ele>663.326228</ele>
        <time>2025-04-06T09:27:50.964Z</time>
      </trkpt>
      <trkpt lat="48.637203" lon="9.955893">
        <ele>665.133257</ele>
        <time>2025-04-06T09:28:20.383Z</time>
      </trkpt>
      <trkpt lat="48.636305" lon="9.955437">
        <ele>662.877732</ele>
        <time>2025-04-06T09:28:38.373Z</time>
      </trkpt>
      <trkpt lat="48.635043" lon="9.954892">
        <ele>656.306514</ele>
        <time>2025-04-06T09:28:58.317Z</time>
      </trkpt>
      <trkpt lat="48.634736" lon="9.954803">
        <ele>653.751979</ele>
        <time>2025-04-06T09:29:02.953Z</time>
      </trkpt>
      <trkpt lat="48.633631" lon="9.954652">
        <ele>644.684802</ele>
        <time>2025-04-06T09:29:19.186Z</time>
      </trkpt>
      <trkpt lat="48.632371" lon="9.954258">
        <ele>632.438272</ele>
        <time>2025-04-06T09:29:37.619Z</time>
      </trkpt>
      <trkpt lat="48.631934" lon="9.954292">
        <ele>628.116101</ele>
        <time>2025-04-06T09:29:43.831Z</time>
      </trkpt>
      <trkpt lat="48.631640" lon="9.954405">
        <ele>625.119890</ele>
        <time>2025-04-06T09:29:48.122Z</time>
      </trkpt>
      <trkpt lat="48.631048" lon="9.954656">
        <ele>619.542260</ele>
        <time>2025-04-06T09:29:56.830Z</time>
      </trkpt>
      <trkpt lat="48.630493" lon="9.954700">
        <ele>614.533168</ele>
        <time>2025-04-06T09:30:04.771Z</time>
      </trkpt>
      <trkpt lat="48.629941" lon="9.954628">
        <ele>609.539524</ele>
        <time>2025-04-06T09:30:12.895Z</time>
      </trkpt>
      <trkpt lat="48.629187" lon="9.954422">
        <ele>605.484148</ele>
        <time>2025-04-06T09:30:24.693Z</time>
      </trkpt>
      <trkpt lat="48.627617" lon="9.953752">
        <ele>599.211294</ele>
        <time>2025-04-06T09:30:52.089Z</time>
      </trkpt>
      <trkpt lat="48.627424" lon="9.953736">
        <ele>598.828097</ele>
        <time>2025-04-06T09:30:55.560Z</time>
      </trkpt>
      <trkpt lat="48.627199" lon="9.953780">
        <ele>598.378322</ele>
        <time>2025-04-06T09:30:59.723Z</time>
      </trkpt>
      <trkpt lat="48.625899" lon="9.954189">
        <ele>596.891083</ele>
        <time>2025-04-06T09:31:26.680Z</time>
      </trkpt>
      <trkpt lat="48.625309" lon="9.954405">
        <ele>597.296770</ele>
        <time>2025-04-06T09:31:40.163Z</time>
      </trkpt>
      <trkpt lat="48.624925" lon="9.954585">
        <ele>597.565439</ele>
        <time>2025-04-06T09:31:49.617Z</time>
      </trkpt>
      <trkpt lat="48.624552" lon="9.954810">
        <ele>597.943082</ele>
        <time>2025-04-06T09:31:59.296Z</time>
      </trkpt>
      <trkpt lat="48.624255" lon="9.954890">
        <ele>598.894764</ele>
        <time>2025-04-06T09:32:06.706Z</time>
      </trkpt>
      <trkpt lat="48.623521" lon="9.954892">
        <ele>601.210322</ele>
        <time>2025-04-06T09:32:25.170Z</time>
      </trkpt>
      <trkpt lat="48.622659" lon="9.954812">
        <ele>604.053677</ele>
        <time>2025-04-06T09:32:47.151Z</time>
      </trkpt>
      <trkpt lat="48.622345" lon="9.954852">
        <ele>605.306837</ele>
        <time>2025-04-06T09:32:55.147Z</time>
      </trkpt>
      <trkpt lat="48.621809" lon="9.954981">
        <ele>607.465252</ele>
        <time>2025-04-06T09:33:09.019Z</time>
      </trkpt>
      <trkpt lat="48.620751" lon="9.955255">
        <ele>611.153139</ele>
        <time>2025-04-06T09:33:37.479Z</time>
      </trkpt>
      <trkpt lat="48.620617" lon="9.955234">
        <ele>611.406596</ele>
        <time>2025-04-06T09:33:41.077Z</time>
      </trkpt>
      <trkpt lat="48.620526" lon="9.955182">
        <ele>611.589611</ele>
        <time>2025-04-06T09:33:43.665Z</time>
      </trkpt>
      <trkpt lat="48.620248" lon="9.954931">
        <ele>612.198715</ele>
        <time>2025-04-06T09:33:52.025Z</time>
      </trkpt>
      <trkpt lat="48.619751" lon="9.954396">
        <ele>613.346349</ele>
        <time>2025-04-06T09:34:06.616Z</time>
      </trkpt>
      <trkpt lat="48.619552" lon="9.954255">
        <ele>613.759782</ele>
        <time>2025-04-06T09:34:11.260Z</time>
      </trkpt>
      <trkpt lat="48.619189" lon="9.954160">
        <ele>612.678634</ele>
        <time>2025-04-06T09:34:17.803Z</time>
      </trkpt>
      <trkpt lat="48.618557" lon="9.953936">
        <ele>608.944832</ele>
        <time>2025-04-06T09:34:27.898Z</time>
      </trkpt>
      <trkpt lat="48.617896" lon="9.953586">
        <ele>604.916465</ele>
        <time>2025-04-06T09:34:38.123Z</time>
      </trkpt>
      <trkpt lat="48.617327" lon="9.953140">
        <ele>603.397660</ele>
        <time>2025-04-06T09:34:47.756Z</time>
      </trkpt>
      <trkpt lat="48.617148" lon="9.952930">
        <ele>603.252429</ele>
        <time>2025-04-06T09:34:51.383Z</time>
      </trkpt>
      <trkpt lat="48.617004" lon="9.952673">
        <ele>603.109641</ele>
        <time>2025-04-06T09:34:55.223Z</time>
      </trkpt>
      <trkpt lat="48.616951" lon="9.952555">
        <ele>603.049176</ele>
        <time>2025-04-06T09:34:57.034Z</time>
      </trkpt>
      <trkpt lat="48.616562" lon="9.951671">
        <ele>602.599086</ele>
        <time>2025-04-06T09:35:14.128Z</time>
      </trkpt>
      <trkpt lat="48.616434" lon="9.951474">
        <ele>603.059705</ele>
        <time>2025-04-06T09:35:19.731Z</time>
      </trkpt>
      <trkpt lat="48.616312" lon="9.951431">
        <ele>604.328833</ele>
        <time>2025-04-06T09:35:23.883Z</time>
      </trkpt>
      <trkpt lat="48.616154" lon="9.951427">
        <ele>605.929801</ele>
        <time>2025-04-06T09:35:29.495Z</time>
      </trkpt>
      <trkpt lat="48.615224" lon="9.951522">
        <ele>615.373362</ele>
        <time>2025-04-06T09:36:07.009Z</time>
      </trkpt>
      <trkpt lat="48.614882" lon="9.951455">
        <ele>618.867203</ele>
        <time>2025-04-06T09:36:21.400Z</time>
      </trkpt>
      <trkpt lat="48.613779" lon="9.950132">
        <ele>631.144938</ele>
        <time>2025-04-06T09:37:12.003Z</time>
      </trkpt>
      <trkpt lat="48.613369" lon="9.949703">
        <ele>635.386948</ele>
        <time>2025-04-06T09:37:26.734Z</time>
      </trkpt>
      <trkpt lat="48.612138" lon="9.948734">
        <ele>641.912181</ele>
        <time>2025-04-06T09:38:02.501Z</time>
      </trkpt>
      <trkpt lat="48.611552" lon="9.948411">
        <ele>644.612953</ele>
        <time>2025-04-06T09:38:18.255Z</time>
      </trkpt>
      <trkpt lat="48.611363" lon="9.948248">
        <ele>645.439382</ele>
        <time>2025-04-06T09:38:23.802Z</time>
      </trkpt>
      <trkpt lat="48.611161" lon="9.947935">
        <ele>646.537868</ele>
        <time>2025-04-06T09:38:31.153Z</time>
      </trkpt>
      <trkpt lat="48.610908" lon="9.947384">
        <ele>648.222652</ele>
        <time>2025-04-06T09:38:42.382Z</time>
      </trkpt>
      <trkpt lat="48.610692" lon="9.946990">
        <ele>649.508080</ele>
        <time>2025-04-06T09:38:50.889Z</time>
      </trkpt>
      <trkpt lat="48.610486" lon="9.946670">
        <ele>650.629768</ele>
        <time>2025-04-06T09:38:58.224Z</time>
      </trkpt>
      <trkpt lat="48.609637" lon="9.945505">
        <ele>654.685698</ele>
        <time>2025-04-06T09:39:26.198Z</time>
      </trkpt>
      <trkpt lat="48.608710" lon="9.944324">
        <ele>659.009658</ele>
        <time>2025-04-06T09:39:56.746Z</time>
      </trkpt>
      <trkpt lat="48.608366" lon="9.943947">
        <ele>660.556600</ele>
        <time>2025-04-06T09:40:07.662Z</time>
      </trkpt>
      <trkpt lat="48.607969" lon="9.943599">
        <ele>662.227502</ele>
        <time>2025-04-06T09:40:19.232Z</time>
      </trkpt>
      <trkpt lat="48.607631" lon="9.943380">
        <ele>663.566490</ele>
        <time>2025-04-06T09:40:28.334Z</time>
      </trkpt>
      <trkpt lat="48.606334" lon="9.942879">
        <ele>667.115236</ele>
        <time>2025-04-06T09:40:59.925Z</time>
      </trkpt>
      <trkpt lat="48.605371" lon="9.942494">
        <ele>669.933194</ele>
        <time>2025-04-06T09:41:24.403Z</time>
      </trkpt>
      <trkpt lat="48.604928" lon="9.942337">
        <ele>671.337639</ele>
        <time>2025-04-06T09:41:36.039Z</time>
      </trkpt>
      <trkpt lat="48.604455" lon="9.942287">
        <ele>672.801201</ele>
        <time>2025-04-06T09:41:48.109Z</time>
      </trkpt>
      <trkpt lat="48.604343" lon="9.942239">
        <ele>673.160523</ele>
        <time>2025-04-06T09:41:51.079Z</time>
      </trkpt>
      <trkpt lat="48.604266" lon="9.942168">
        <ele>673.438894</ele>
        <time>2025-04-06T09:41:53.365Z</time>
      </trkpt>
      <trkpt lat="48.604114" lon="9.941693">
        <ele>674.148674</ele>
        <time>2025-04-06T09:42:01.995Z</time>
      </trkpt>
      <trkpt lat="48.604114" lon="9.941543">
        <ele>674.220763</ele>
        <time>2025-04-06T09:42:04.291Z</time>
      </trkpt>
      <trkpt lat="48.604155" lon="9.941369">
        <ele>674.309536</ele>
        <time>2025-04-06T09:42:07.098Z</time>
      </trkpt>
      <trkpt lat="48.604349" lon="9.941170">
        <ele>674.479908</ele>
        <time>2025-04-06T09:42:12.444Z</time>
      </trkpt>
      <trkpt lat="48.604404" lon="9.941023">
        <ele>674.561079</ele>
        <time>2025-04-06T09:42:14.940Z</time>
      </trkpt>
      <trkpt lat="48.604437" lon="9.940796">
        <ele>674.672778</ele>
        <time>2025-04-06T09:42:18.317Z</time>
      </trkpt>
      <trkpt lat="48.604453" lon="9.940383">
        <ele>674.871601</ele>
        <time>2025-04-06T09:42:23.920Z</time>
      </trkpt>
      <trkpt lat="48.604397" lon="9.939860">
        <ele>675.126223</ele>
        <time>2025-04-06T09:42:30.749Z</time>
      </trkpt>
      <trkpt lat="48.604367" lon="9.939129">
        <ele>675.556081</ele>
        <time>2025-04-06T09:42:40.742Z</time>
      </trkpt>
      <trkpt lat="48.604362" lon="9.938547">
        <ele>675.996652</ele>
        <time>2025-04-06T09:42:49.125Z</time>
      </trkpt>
      <trkpt lat="48.603467" lon="9.938683">
        <ele>677.026309</ele>
        <time>2025-04-06T09:43:09.783Z</time>
      </trkpt>
      <trkpt lat="48.603218" lon="9.938646">
        <ele>677.312709</ele>
        <time>2025-04-06T09:43:15.691Z</time>
      </trkpt>
      <trkpt lat="48.602909" lon="9.938464">
        <ele>677.639733</ele>
        <time>2025-04-06T09:43:23.519Z</time>
      </trkpt>
      <trkpt lat="48.602800" lon="9.938351">
        <ele>677.763646</ele>
        <time>2025-04-06T09:43:26.612Z</time>
      </trkpt>
      <trkpt lat="48.602589" lon="9.938048">
        <ele>678.036480</ele>
        <time>2025-04-06T09:43:33.358Z</time>
      </trkpt>
      <trkpt lat="48.602492" lon="9.937859">
        <ele>678.184822</ele>
        <time>2025-04-06T09:43:37.005Z</time>
      </trkpt>
      <trkpt lat="48.602317" lon="9.937427">
        <ele>678.498946</ele>
        <time>2025-04-06T09:43:44.614Z</time>
      </trkpt>
      <trkpt lat="48.602165" lon="9.936763">
        <ele>678.934629</ele>
        <time>2025-04-06T09:43:54.722Z</time>
      </trkpt>
      <trkpt lat="48.602120" lon="9.936405">
        <ele>678.854472</ele>
        <time>2025-04-06T09:43:59.508Z</time>
      </trkpt>
      <trkpt lat="48.602021" lon="9.935588">
        <ele>677.192621</ele>
        <time>2025-04-06T09:44:09.493Z</time>
      </trkpt>
      <trkpt lat="48.602015" lon="9.935521">
        <ele>677.057345</ele>
        <time>2025-04-06T09:44:10.256Z</time>
      </trkpt>
      <trkpt lat="48.601955" lon="9.934965">
        <ele>675.930197</ele>
        <time>2025-04-06T09:44:16.450Z</time>
      </trkpt>
      <trkpt lat="48.601851" lon="9.934494">
        <ele>674.936683</ele>
        <time>2025-04-06T09:44:21.670Z</time>
      </trkpt>
      <trkpt lat="48.601601" lon="9.933867">
        <ele>673.443993</ele>
        <time>2025-04-06T09:44:28.910Z</time>
      </trkpt>
      <trkpt lat="48.601223" lon="9.933323">
        <ele>671.613488</ele>
        <time>2025-04-06T09:44:36.524Z</time>
      </trkpt>
      <trkpt lat="48.600915" lon="9.932897">
        <ele>670.149275</ele>
        <time>2025-04-06T09:44:42.794Z</time>
      </trkpt>
      <trkpt lat="48.600729" lon="9.932575">
        <ele>669.157469</ele>
        <time>2025-04-06T09:44:47.221Z</time>
      </trkpt>
      <trkpt lat="48.600584" lon="9.932184">
        <ele>668.117548</ele>
        <time>2025-04-06T09:44:52.112Z</time>
      </trkpt>
      <trkpt lat="48.599730" lon="9.928705">
        <ele>671.704422</ele>
        <time>2025-04-06T09:45:49.585Z</time>
      </trkpt>
      <trkpt lat="48.599499" lon="9.927951">
        <ele>673.327507</ele>
        <time>2025-04-06T09:46:03.448Z</time>
      </trkpt>
      <trkpt lat="48.599277" lon="9.927419">
        <ele>674.556199</ele>
        <time>2025-04-06T09:46:13.825Z</time>
      </trkpt>
      <trkpt lat="48.599158" lon="9.927207">
        <ele>675.099335</ele>
        <time>2025-04-06T09:46:18.315Z</time>
      </trkpt>
      <trkpt lat="48.599010" lon="9.926943">
        <ele>675.750545</ele>
        <time>2025-04-06T09:46:23.833Z</time>
      </trkpt>
      <trkpt lat="48.598699" lon="9.926500">
        <ele>676.167401</ele>
        <time>2025-04-06T09:46:33.845Z</time>
      </trkpt>
      <trkpt lat="48.597836" lon="9.925377">
        <ele>677.278245</ele>
        <time>2025-04-06T09:46:58.920Z</time>
      </trkpt>
      <trkpt lat="48.597649" lon="9.925075">
        <ele>677.500740</ele>
        <time>2025-04-06T09:47:04.526Z</time>
      </trkpt>
      <trkpt lat="48.597519" lon="9.924736">
        <ele>677.537571</ele>
        <time>2025-04-06T09:47:09.911Z</time>
      </trkpt>
      <trkpt lat="48.597309" lon="9.924036">
        <ele>677.609817</ele>
        <time>2025-04-06T09:47:20.619Z</time>
      </trkpt>
      <trkpt lat="48.597109" lon="9.923691">
        <ele>677.652938</ele>
        <time>2025-04-06T09:47:27.106Z</time>
      </trkpt>
      <trkpt lat="48.596892" lon="9.923526">
        <ele>677.687458</ele>
        <time>2025-04-06T09:47:32.354Z</time>
      </trkpt>
      <trkpt lat="48.596716" lon="9.923451">
        <ele>677.713445</ele>
        <time>2025-04-06T09:47:36.305Z</time>
      </trkpt>
      <trkpt lat="48.595956" lon="9.923218">
        <ele>678.017336</ele>
        <time>2025-04-06T09:47:52.955Z</time>
      </trkpt>
      <trkpt lat="48.595814" lon="9.923123">
        <ele>678.096493</ele>
        <time>2025-04-06T09:47:56.298Z</time>
      </trkpt>
      <trkpt lat="48.595706" lon="9.922965">
        <ele>678.173100</ele>
        <time>2025-04-06T09:47:59.522Z</time>
      </trkpt>
      <trkpt lat="48.595644" lon="9.922762">
        <ele>678.248485</ele>
        <time>2025-04-06T09:48:02.696Z</time>
      </trkpt>
      <trkpt lat="48.595503" lon="9.922387">
        <ele>678.393919</ele>
        <time>2025-04-06T09:48:08.849Z</time>
      </trkpt>
      <trkpt lat="48.594989" lon="9.921140">
        <ele>680.022264</ele>
        <time>2025-04-06T09:48:30.709Z</time>
      </trkpt>
      <trkpt lat="48.594891" lon="9.920863">
        <ele>680.664747</ele>
        <time>2025-04-06T09:48:35.646Z</time>
      </trkpt>
      <trkpt lat="48.595040" lon="9.920733">
        <ele>681.196713</ele>
        <time>2025-04-06T09:48:40.581Z</time>
      </trkpt>
      <trkpt lat="48.594891" lon="9.920863">
        <ele>681.728680</ele>
        <time>2025-04-06T09:48:45.566Z</time>
      </trkpt>
      <trkpt lat="48.594809" lon="9.920615">
        <ele>682.295744</ele>
        <time>2025-04-06T09:48:50.185Z</time>
      </trkpt>
      <trkpt lat="48.594787" lon="9.920307">
        <ele>682.929331</ele>
        <time>2025-04-06T09:48:55.475Z</time>
      </trkpt>
      <trkpt lat="48.594794" lon="9.919921">
        <ele>683.719078</ele>
        <time>2025-04-06T09:49:02.265Z</time>
      </trkpt>
      <trkpt lat="48.594873" lon="9.919116">
        <ele>684.735934</ele>
        <time>2025-04-06T09:49:16.791Z</time>
      </trkpt>
      <trkpt lat="48.594871" lon="9.918147">
        <ele>685.607404</ele>
        <time>2025-04-06T09:49:32.627Z</time>
      </trkpt>
      <trkpt lat="48.594853" lon="9.917780">
        <ele>685.938370</ele>
        <time>2025-04-06T09:49:37.969Z</time>
      </trkpt>
      <trkpt lat="48.594795" lon="9.917487">
        <ele>686.213428</ele>
        <time>2025-04-06T09:49:41.932Z</time>
      </trkpt>
      <trkpt lat="48.594931" lon="9.917302">
        <ele>686.462190</ele>
        <time>2025-04-06T09:49:45.110Z</time>
      </trkpt>
      <trkpt lat="48.595011" lon="9.917363">
        <ele>686.584024</ele>
        <time>2025-04-06T09:49:46.679Z</time>
      </trkpt>
      <trkpt lat="48.595266" lon="9.917436">
        <ele>685.566477</ele>
        <time>2025-04-06T09:49:50.953Z</time>
      </trkpt>
      <trkpt lat="48.595748" lon="9.917493">
        <ele>682.803968</ele>
        <time>2025-04-06T09:49:58.383Z</time>
      </trkpt>
      <trkpt lat="48.597712" lon="9.918640">
        <ele>672.659667</ele>
        <time>2025-04-06T09:50:28.807Z</time>
      </trkpt>
      <trkpt lat="48.599340" lon="9.918864">
        <ele>669.963014</ele>
        <time>2025-04-06T09:51:01.976Z</time>
      </trkpt>
      <trkpt lat="48.599905" lon="9.918905">
        <ele>670.236843</ele>
        <time>2025-04-06T09:51:14.763Z</time>
      </trkpt>
      <trkpt lat="48.600179" lon="9.918872">
        <ele>670.369905</ele>
        <time>2025-04-06T09:51:21.001Z</time>
      </trkpt>
      <trkpt lat="48.602099" lon="9.918370">
        <ele>673.023111</ele>
        <time>2025-04-06T09:52:05.787Z</time>
      </trkpt>
      <trkpt lat="48.603268" lon="9.917802">
        <ele>674.785025</ele>
        <time>2025-04-06T09:52:33.519Z</time>
      </trkpt>
      <trkpt lat="48.603973" lon="9.917460">
        <ele>675.996237</ele>
        <time>2025-04-06T09:52:50.704Z</time>
      </trkpt>
      <trkpt lat="48.603991" lon="9.917864">
        <ele>676.600113</ele>
        <time>2025-04-06T09:52:59.678Z</time>
      </trkpt>
      <trkpt lat="48.604145" lon="9.918605">
        <ele>677.758504</ele>
        <time>2025-04-06T09:53:16.904Z</time>
      </trkpt>
      <trkpt lat="48.604206" lon="9.918781">
        <ele>678.054852</ele>
        <time>2025-04-06T09:53:21.289Z</time>
      </trkpt>
      <trkpt lat="48.604293" lon="9.918819">
        <ele>678.259086</ele>
        <time>2025-04-06T09:53:24.355Z</time>
      </trkpt>
      <trkpt lat="48.606200" lon="9.918805">
        <ele>681.831777</ele>
        <time>2025-04-06T09:54:28.245Z</time>
      </trkpt>
      <trkpt lat="48.608338" lon="9.918722">
        <ele>683.522054</ele>
        <time>2025-04-06T09:55:41.716Z</time>
      </trkpt>
      <trkpt lat="48.610119" lon="9.915045">
        <ele>684.648197</ele>
        <time>2025-04-06T09:57:25.718Z</time>
      </trkpt>
      <trkpt lat="48.610262" lon="9.914701">
        <ele>684.783050</ele>
        <time>2025-04-06T09:57:34.860Z</time>
      </trkpt>
      <trkpt lat="48.610420" lon="9.913386">
        <ele>685.207155</ele>
        <time>2025-04-06T09:58:05.061Z</time>
      </trkpt>
      <trkpt lat="48.610736" lon="9.912784">
        <ele>685.437736</ele>
        <time>2025-04-06T09:58:22.473Z</time>
      </trkpt>
      <trkpt lat="48.610763" lon="9.912379">
        <ele>685.559844</ele>
        <time>2025-04-06T09:58:31.756Z</time>
      </trkpt>
      <trkpt lat="48.610835" lon="9.912144">
        <ele>685.637540</ele>
        <time>2025-04-06T09:58:37.678Z</time>
      </trkpt>
      <trkpt lat="48.611153" lon="9.912144">
        <ele>685.781820</ele>
        <time>2025-04-06T09:58:44.352Z</time>
      </trkpt>
      <trkpt lat="48.611449" lon="9.912061">
        <ele>685.731315</ele>
        <time>2025-04-06T09:58:50.897Z</time>
      </trkpt>
      <trkpt lat="48.611521" lon="9.912025">
        <ele>685.683385</ele>
        <time>2025-04-06T09:58:52.517Z</time>
      </trkpt>
      <trkpt lat="48.612086" lon="9.911719">
        <ele>685.304076</ele>
        <time>2025-04-06T09:59:05.222Z</time>
      </trkpt>
      <trkpt lat="48.612284" lon="9.911639">
        <ele>685.174543</ele>
        <time>2025-04-06T09:59:09.433Z</time>
      </trkpt>
      <trkpt lat="48.612428" lon="9.911622">
        <ele>685.083251</ele>
        <time>2025-04-06T09:59:12.345Z</time>
      </trkpt>
      <trkpt lat="48.612693" lon="9.911691">
        <ele>684.913296</ele>
        <time>2025-04-06T09:59:17.602Z</time>
      </trkpt>
      <trkpt lat="48.612877" lon="9.911800">
        <ele>684.788398</ele>
        <time>2025-04-06T09:59:21.390Z</time>
      </trkpt>
      <trkpt lat="48.612920" lon="9.911836">
        <ele>684.757334</ele>
        <time>2025-04-06T09:59:22.294Z</time>
      </trkpt>
      <trkpt lat="48.613217" lon="9.912133">
        <ele>683.642415</ele>
        <time>2025-04-06T09:59:28.689Z</time>
      </trkpt>
      <trkpt lat="48.613443" lon="9.912459">
        <ele>682.418443</ele>
        <time>2025-04-06T09:59:33.672Z</time>
      </trkpt>
      <trkpt lat="48.613643" lon="9.912909">
        <ele>681.013443</ele>
        <time>2025-04-06T09:59:39.152Z</time>
      </trkpt>
      <trkpt lat="48.613729" lon="9.913307">
        <ele>679.928483</ele>
        <time>2025-04-06T09:59:43.359Z</time>
      </trkpt>
      <trkpt lat="48.613737" lon="9.913437">
        <ele>679.590178</ele>
        <time>2025-04-06T09:59:44.663Z</time>
      </trkpt>
      <trkpt lat="48.613769" lon="9.914060">
        <ele>677.971031</ele>
        <time>2025-04-06T09:59:50.904Z</time>
      </trkpt>
      <trkpt lat="48.613774" lon="9.914113">
        <ele>677.832309</ele>
        <time>2025-04-06T09:59:51.439Z</time>
      </trkpt>
      <trkpt lat="48.613798" lon="9.914348">
        <ele>677.361704</ele>
        <time>2025-04-06T09:59:53.815Z</time>
      </trkpt>
      <trkpt lat="48.613870" lon="9.914695">
        <ele>676.732539</ele>
        <time>2025-04-06T09:59:57.489Z</time>
      </trkpt>
      <trkpt lat="48.613939" lon="9.914979">
        <ele>676.209107</ele>
        <time>2025-04-06T10:00:00.553Z</time>
      </trkpt>
      <trkpt lat="48.614004" lon="9.915198">
        <ele>675.793821</ele>
        <time>2025-04-06T10:00:03.020Z</time>
      </trkpt>
      <trkpt lat="48.614107" lon="9.915544">
        <ele>675.137379</ele>
        <time>2025-04-06T10:00:07.110Z</time>
      </trkpt>
      <trkpt lat="48.614187" lon="9.915700">
        <ele>674.795837</ele>
        <time>2025-04-06T10:00:09.390Z</time>
      </trkpt>
      <trkpt lat="48.614328" lon="9.915883">
        <ele>674.309682</ele>
        <time>2025-04-06T10:00:12.765Z</time>
      </trkpt>
      <trkpt lat="48.614464" lon="9.915974">
        <ele>673.920551</ele>
        <time>2025-04-06T10:00:15.547Z</time>
      </trkpt>
      <trkpt lat="48.614596" lon="9.916016">
        <ele>673.567592</ele>
        <time>2025-04-06T10:00:18.089Z</time>
      </trkpt>
      <trkpt lat="48.614849" lon="9.915997">
        <ele>672.993066</ele>
        <time>2025-04-06T10:00:23.219Z</time>
      </trkpt>
      <trkpt lat="48.614942" lon="9.915946">
        <ele>673.267604</ele>
        <time>2025-04-06T10:00:25.330Z</time>
      </trkpt>
      <trkpt lat="48.615059" lon="9.915882">
        <ele>673.612890</ele>
        <time>2025-04-06T10:00:28.120Z</time>
      </trkpt>
      <trkpt lat="48.615386" lon="9.915553">
        <ele>674.702821</ele>
        <time>2025-04-06T10:00:37.247Z</time>
      </trkpt>
      <trkpt lat="48.615599" lon="9.915339">
        <ele>675.412467</ele>
        <time>2025-04-06T10:00:43.406Z</time>
      </trkpt>
      <trkpt lat="48.615902" lon="9.915075">
        <ele>676.382897</ele>
        <time>2025-04-06T10:00:52.185Z</time>
      </trkpt>
      <trkpt lat="48.616044" lon="9.914937">
        <ele>676.851310</ele>
        <time>2025-04-06T10:00:56.493Z</time>
      </trkpt>
      <trkpt lat="48.616299" lon="9.914654">
        <ele>677.729048</ele>
        <time>2025-04-06T10:01:04.729Z</time>
      </trkpt>
      <trkpt lat="48.616587" lon="9.914368">
        <ele>678.914287</ele>
        <time>2025-04-06T10:01:13.942Z</time>
      </trkpt>
      <trkpt lat="48.616741" lon="9.914291">
        <ele>679.502691</ele>
        <time>2025-04-06T10:01:18.328Z</time>
      </trkpt>
      <trkpt lat="48.616876" lon="9.914224">
        <ele>680.018124</ele>
        <time>2025-04-06T10:01:22.082Z</time>
      </trkpt>
      <trkpt lat="48.617037" lon="9.914167">
        <ele>680.617977</ele>
        <time>2025-04-06T10:01:26.428Z</time>
      </trkpt>
      <trkpt lat="48.617204" lon="9.914111">
        <ele>681.238520</ele>
        <time>2025-04-06T10:01:30.824Z</time>
      </trkpt>
      <trkpt lat="48.618192" lon="9.913927">
        <ele>684.485755</ele>
        <time>2025-04-06T10:01:55.030Z</time>
      </trkpt>
      <trkpt lat="48.619279" lon="9.913700">
        <ele>684.706775</ele>
        <time>2025-04-06T10:02:19.271Z</time>
      </trkpt>
      <trkpt lat="48.620231" lon="9.913418">
        <ele>684.258655</ele>
        <time>2025-04-06T10:02:36.792Z</time>
      </trkpt>
      <trkpt lat="48.621410" lon="9.913069">
        <ele>682.439040</ele>
        <time>2025-04-06T10:02:57.749Z</time>
      </trkpt>
      <trkpt lat="48.621746" lon="9.913031">
        <ele>682.157325</ele>
        <time>2025-04-06T10:03:04.579Z</time>
      </trkpt>
      <trkpt lat="48.621983" lon="9.913095">
        <ele>682.272749</ele>
        <time>2025-04-06T10:03:09.827Z</time>
      </trkpt>
      <trkpt lat="48.622215" lon="9.913212">
        <ele>682.389996</ele>
        <time>2025-04-06T10:03:15.349Z</time>
      </trkpt>
      <trkpt lat="48.622529" lon="9.913434">
        <ele>682.556169</ele>
        <time>2025-04-06T10:03:23.348Z</time>
      </trkpt>
      <trkpt lat="48.622871" lon="9.913621">
        <ele>682.730519</ele>
        <time>2025-04-06T10:03:31.692Z</time>
      </trkpt>
      <trkpt lat="48.623128" lon="9.913695">
        <ele>682.855947</ele>
        <time>2025-04-06T10:03:37.617Z</time>
      </trkpt>
      <trkpt lat="48.623444" lon="9.913711">
        <ele>682.813361</ele>
        <time>2025-04-06T10:03:44.625Z</time>
      </trkpt>
      <trkpt lat="48.624934" lon="9.913374">
        <ele>680.261535</ele>
        <time>2025-04-06T10:04:11.044Z</time>
      </trkpt>
      <trkpt lat="48.625386" lon="9.913211">
        <ele>679.609609</ele>
        <time>2025-04-06T10:04:18.735Z</time>
      </trkpt>
      <trkpt lat="48.625761" lon="9.913062">
        <ele>679.152911</ele>
        <time>2025-04-06T10:04:25.378Z</time>
      </trkpt>
      <trkpt lat="48.627063" lon="9.912412">
        <ele>677.678101</ele>
        <time>2025-04-06T10:04:53.032Z</time>
      </trkpt>
      <trkpt lat="48.627613" lon="9.912179">
        <ele>677.365886</ele>
        <time>2025-04-06T10:05:05.323Z</time>
      </trkpt>
      <trkpt lat="48.628027" lon="9.912053">
        <ele>677.135043</ele>
        <time>2025-04-06T10:05:13.986Z</time>
      </trkpt>
      <trkpt lat="48.628608" lon="9.911936">
        <ele>676.811385</ele>
        <time>2025-04-06T10:05:25.397Z</time>
      </trkpt>
      <trkpt lat="48.629856" lon="9.911876">
        <ele>674.762461</ele>
        <time>2025-04-06T10:05:47.731Z</time>
      </trkpt>
      <trkpt lat="48.632013" lon="9.911692">
        <ele>671.392141</ele>
        <time>2025-04-06T10:06:26.580Z</time>
      </trkpt>
      <trkpt lat="48.632524" lon="9.911627">
        <ele>671.024909</ele>
        <time>2025-04-06T10:06:36.691Z</time>
      </trkpt>
      <trkpt lat="48.633058" lon="9.911513">
        <ele>670.887736</ele>
        <time>2025-04-06T10:06:47.676Z</time>
      </trkpt>
      <trkpt lat="48.633505" lon="9.911333">
        <ele>670.770081</ele>
        <time>2025-04-06T10:06:57.489Z</time>
      </trkpt>
      <trkpt lat="48.634029" lon="9.911126">
        <ele>670.619856</ele>
        <time>2025-04-06T10:07:09.296Z</time>
      </trkpt>
      <trkpt lat="48.634963" lon="9.910821">
        <ele>670.212004</ele>
        <time>2025-04-06T10:07:29.782Z</time>
      </trkpt>
      <trkpt lat="48.635099" lon="9.910810">
        <ele>670.153870</ele>
        <time>2025-04-06T10:07:32.616Z</time>
      </trkpt>
      <trkpt lat="48.636104" lon="9.910651">
        <ele>669.093798</ele>
        <time>2025-04-06T10:07:51.519Z</time>
      </trkpt>
      <trkpt lat="48.636670" lon="9.910640">
        <ele>667.905245</ele>
        <time>2025-04-06T10:08:00.952Z</time>
      </trkpt>
      <trkpt lat="48.636916" lon="9.910679">
        <ele>667.385881</ele>
        <time>2025-04-06T10:08:05.030Z</time>
      </trkpt>
      <trkpt lat="48.637693" lon="9.910912">
        <ele>666.135262</ele>
        <time>2025-04-06T10:08:18.791Z</time>
      </trkpt>
      <trkpt lat="48.637917" lon="9.911015">
        <ele>666.172385</ele>
        <time>2025-04-06T10:08:23.391Z</time>
      </trkpt>
      <trkpt lat="48.638163" lon="9.911128">
        <ele>666.213150</ele>
        <time>2025-04-06T10:08:28.726Z</time>
      </trkpt>
      <trkpt lat="48.638548" lon="9.911385">
        <ele>666.279875</ele>
        <time>2025-04-06T10:08:37.963Z</time>
      </trkpt>
      <trkpt lat="48.638949" lon="9.911743">
        <ele>666.353702</ele>
        <time>2025-04-06T10:08:48.622Z</time>
      </trkpt>
      <trkpt lat="48.639289" lon="9.912150">
        <ele>666.520862</ele>
        <time>2025-04-06T10:08:58.552Z</time>
      </trkpt>
      <trkpt lat="48.639521" lon="9.912487">
        <ele>666.734043</ele>
        <time>2025-04-06T10:09:05.848Z</time>
      </trkpt>
      <trkpt lat="48.639750" lon="9.912880">
        <ele>666.963569</ele>
        <time>2025-04-06T10:09:13.639Z</time>
      </trkpt>
      <trkpt lat="48.640065" lon="9.913528">
        <ele>667.315958</ele>
        <time>2025-04-06T10:09:25.328Z</time>
      </trkpt>
      <trkpt lat="48.640453" lon="9.914528">
        <ele>667.437932</ele>
        <time>2025-04-06T10:09:41.289Z</time>
      </trkpt>
      <trkpt lat="48.640580" lon="9.915010">
        <ele>667.299790</ele>
        <time>2025-04-06T10:09:48.279Z</time>
      </trkpt>
      <trkpt lat="48.641127" lon="9.917723">
        <ele>666.533180</ele>
        <time>2025-04-06T10:10:25.945Z</time>
      </trkpt>
      <trkpt lat="48.641481" lon="9.919531">
        <ele>666.119174</ele>
        <time>2025-04-06T10:10:51.437Z</time>
      </trkpt>
      <trkpt lat="48.641615" lon="9.920157">
        <ele>666.140317</ele>
        <time>2025-04-06T10:11:00.447Z</time>
      </trkpt>
      <trkpt lat="48.641731" lon="9.920563">
        <ele>666.154529</ele>
        <time>2025-04-06T10:11:06.584Z</time>
      </trkpt>
      <trkpt lat="48.642028" lon="9.921610">
        <ele>666.191139</ele>
        <time>2025-04-06T10:11:22.811Z</time>
      </trkpt>
      <trkpt lat="48.642910" lon="9.924793">
        <ele>666.571925</ele>
        <time>2025-04-06T10:12:12.813Z</time>
      </trkpt>
      <trkpt lat="48.643496" lon="9.926317">
        <ele>665.404880</ele>
        <time>2025-04-06T10:12:34.825Z</time>
      </trkpt>
      <trkpt lat="48.643615" lon="9.926626">
        <ele>665.168162</ele>
        <time>2025-04-06T10:12:38.939Z</time>
      </trkpt>
      <trkpt lat="48.643730" lon="9.927064">
        <ele>664.527922</ele>
        <time>2025-04-06T10:12:44.355Z</time>
      </trkpt>
      <trkpt lat="48.643815" lon="9.927532">
        <ele>663.862105</ele>
        <time>2025-04-06T10:12:49.907Z</time>
      </trkpt>
      <trkpt lat="48.643990" lon="9.928489">
        <ele>662.499944</ele>
        <time>2025-04-06T10:13:01.197Z</time>
      </trkpt>
      <trkpt lat="48.644013" lon="9.928616">
        <ele>662.319300</ele>
        <time>2025-04-06T10:13:02.715Z</time>
      </trkpt>
      <trkpt lat="48.644065" lon="9.929124">
        <ele>661.614115</ele>
        <time>2025-04-06T10:13:08.686Z</time>
      </trkpt>
      <trkpt lat="48.644082" lon="9.929658">
        <ele>661.018058</ele>
        <time>2025-04-06T10:13:14.955Z</time>
      </trkpt>
      <trkpt lat="48.644070" lon="9.931709">
        <ele>658.910455</ele>
        <time>2025-04-06T10:13:39.431Z</time>
      </trkpt>
      <trkpt lat="48.644136" lon="9.932583">
        <ele>658.544481</ele>
        <time>2025-04-06T10:13:50.918Z</time>
      </trkpt>
      <trkpt lat="48.644232" lon="9.932705">
        <ele>658.517527</ele>
        <time>2025-04-06T10:13:53.451Z</time>
      </trkpt>
      <trkpt lat="48.644379" lon="9.932756">
        <ele>658.485099</ele>
        <time>2025-04-06T10:13:56.514Z</time>
      </trkpt>
      <trkpt lat="48.645221" lon="9.933641">
        <ele>658.264674</ele>
        <time>2025-04-06T10:14:18.410Z</time>
      </trkpt>
      <trkpt lat="48.646670" lon="9.935102">
        <ele>658.665712</ele>
        <time>2025-04-06T10:14:55.992Z</time>
      </trkpt>
      <trkpt lat="48.648730" lon="9.937221">
        <ele>660.247894</ele>
        <time>2025-04-06T10:15:49.249Z</time>
      </trkpt>
      <trkpt lat="48.650375" lon="9.938915">
        <ele>664.793316</ele>
        <time>2025-04-06T10:16:37.544Z</time>
      </trkpt>
      <trkpt lat="48.651946" lon="9.940531">
        <ele>669.414296</ele>
        <time>2025-04-06T10:17:22.481Z</time>
      </trkpt>
      <trkpt lat="48.652202" lon="9.940874">
        <ele>670.171127</ele>
        <time>2025-04-06T10:17:30.479Z</time>
      </trkpt>
      <trkpt lat="48.652737" lon="9.939804">
        <ele>672.104129</ele>
        <time>2025-04-06T10:17:51.260Z</time>
      </trkpt>
      <trkpt lat="48.653097" lon="9.939212">
        <ele>673.220588</ele>
        <time>2025-04-06T10:18:03.802Z</time>
      </trkpt>
      <trkpt lat="48.653316" lon="9.938910">
        <ele>673.842821</ele>
        <time>2025-04-06T10:18:10.827Z</time>
      </trkpt>
      <trkpt lat="48.654569" lon="9.937178">
        <ele>676.000705</ele>
        <time>2025-04-06T10:18:50.315Z</time>
      </trkpt>
      <trkpt lat="48.655447" lon="9.935914">
        <ele>675.724236</ele>
        <time>2025-04-06T10:19:14.463Z</time>
      </trkpt>
      <trkpt lat="48.655924" lon="9.935104">
        <ele>674.243051</ele>
        <time>2025-04-06T10:19:26.831Z</time>
      </trkpt>
      <trkpt lat="48.656446" lon="9.934126">
        <ele>672.502359</ele>
        <time>2025-04-06T10:19:40.663Z</time>
      </trkpt>
      <trkpt lat="48.656609" lon="9.933691">
        <ele>671.765065</ele>
        <time>2025-04-06T10:19:46.086Z</time>
      </trkpt>
      <trkpt lat="48.657062" lon="9.932276">
        <ele>669.446929</ele>
        <time>2025-04-06T10:20:03.918Z</time>
      </trkpt>
      <trkpt lat="48.657647" lon="9.930413">
        <ele>667.549529</ele>
        <time>2025-04-06T10:20:30.004Z</time>
      </trkpt>
      <trkpt lat="48.657679" lon="9.930314">
        <ele>667.464083</ele>
        <time>2025-04-06T10:20:31.414Z</time>
      </trkpt>
      <trkpt lat="48.658100" lon="9.929023">
        <ele>666.318629</ele>
        <time>2025-04-06T10:20:49.808Z</time>
      </trkpt>
      <trkpt lat="48.658473" lon="9.927665">
        <ele>665.085485</ele>
        <time>2025-04-06T10:21:08.237Z</time>
      </trkpt>
      <trkpt lat="48.658601" lon="9.927371">
        <ele>664.790251</ele>
        <time>2025-04-06T10:21:12.582Z</time>
      </trkpt>
      <trkpt lat="48.658893" lon="9.926976">
        <ele>664.248964</ele>
        <time>2025-04-06T10:21:19.781Z</time>
      </trkpt>
      <trkpt lat="48.659412" lon="9.926260">
        <ele>663.056124</ele>
        <time>2025-04-06T10:21:32.538Z</time>
      </trkpt>
      <trkpt lat="48.660055" lon="9.925296">
        <ele>661.518827</ele>
        <time>2025-04-06T10:21:48.758Z</time>
      </trkpt>
      <trkpt lat="48.660732" lon="9.924227">
        <ele>659.622765</ele>
        <time>2025-04-06T10:22:05.857Z</time>
      </trkpt>
      <trkpt lat="48.660867" lon="9.923939">
        <ele>659.165071</ele>
        <time>2025-04-06T10:22:09.875Z</time>
      </trkpt>
      <trkpt lat="48.661115" lon="9.923288">
        <ele>658.191098</ele>
        <time>2025-04-06T10:22:18.519Z</time>
      </trkpt>
      <trkpt lat="48.661284" lon="9.922642">
        <ele>657.818950</ele>
        <time>2025-04-06T10:22:26.838Z</time>
      </trkpt>
      <trkpt lat="48.661376" lon="9.922178">
        <ele>657.795757</ele>
        <time>2025-04-06T10:22:33.030Z</time>
      </trkpt>
      <trkpt lat="48.661538" lon="9.921361">
        <ele>657.754919</ele>
        <time>2025-04-06T10:22:44.749Z</time>
      </trkpt>
      <trkpt lat="48.661657" lon="9.920792">
        <ele>657.726345</ele>
        <time>2025-04-06T10:22:53.559Z</time>
      </trkpt>
      <trkpt lat="48.661991" lon="9.920893">
        <ele>657.876124</ele>
        <time>2025-04-06T10:23:01.374Z</time>
      </trkpt>
      <trkpt lat="48.662920" lon="9.921174">
        <ele>659.473834</ele>
        <time>2025-04-06T10:23:23.489Z</time>
      </trkpt>
      <trkpt lat="48.665292" lon="9.921891">
        <ele>662.524477</ele>
        <time>2025-04-06T10:24:19.295Z</time>
      </trkpt>
      <trkpt lat="48.668380" lon="9.922807">
        <ele>659.783988</ele>
        <time>2025-04-06T10:25:15.143Z</time>
      </trkpt>
      <trkpt lat="48.671867" lon="9.923866">
        <ele>668.126667</ele>
        <time>2025-04-06T10:26:43.757Z</time>
      </trkpt>
      <trkpt lat="48.674142" lon="9.924520">
        <ele>667.216764</ele>
        <time>2025-04-06T10:27:25.211Z</time>
      </trkpt>
      <trkpt lat="48.674252" lon="9.923272">
        <ele>668.461474</ele>
        <time>2025-04-06T10:27:45.037Z</time>
      </trkpt>
      <trkpt lat="48.674420" lon="9.921414">
        <ele>670.490862</ele>
        <time>2025-04-06T10:28:15.684Z</time>
      </trkpt>
      <trkpt lat="48.674487" lon="9.920689">
        <ele>670.500634</ele>
        <time>2025-04-06T10:28:26.759Z</time>
      </trkpt>
      <trkpt lat="48.674602" lon="9.920355">
        <ele>670.505662</ele>
        <time>2025-04-06T10:28:32.108Z</time>
      </trkpt>
      <trkpt lat="48.674684" lon="9.920260">
        <ele>670.507749</ele>
        <time>2025-04-06T10:28:34.264Z</time>
      </trkpt>
      <trkpt lat="48.674813" lon="9.920044">
        <ele>670.511636</ele>
        <time>2025-04-06T10:28:38.208Z</time>
      </trkpt>
      <trkpt lat="48.674703" lon="9.919885">
        <ele>670.514710</ele>
        <time>2025-04-06T10:28:41.207Z</time>
      </trkpt>
      <trkpt lat="48.674678" lon="9.919403">
        <ele>670.521164</ele>
        <time>2025-04-06T10:28:47.338Z</time>
      </trkpt>
      <trkpt lat="48.674608" lon="9.919101">
        <ele>670.505442</ele>
        <time>2025-04-06T10:28:51.385Z</time>
      </trkpt>
      <trkpt lat="48.675002" lon="9.918988">
        <ele>670.408711</ele>
        <time>2025-04-06T10:28:58.894Z</time>
      </trkpt>
      <trkpt lat="48.675211" lon="9.918816">
        <ele>670.351332</ele>
        <time>2025-04-06T10:29:03.484Z</time>
      </trkpt>
      <trkpt lat="48.675519" lon="9.918613">
        <ele>670.270305</ele>
        <time>2025-04-06T10:29:10.314Z</time>
      </trkpt>
      <trkpt lat="48.676454" lon="9.918192">
        <ele>670.413429</ele>
        <time>2025-04-06T10:29:31.907Z</time>
      </trkpt>
      <trkpt lat="48.677346" lon="9.917781">
        <ele>671.735588</ele>
        <time>2025-04-06T10:29:53.424Z</time>
      </trkpt>
      <trkpt lat="48.680350" lon="9.917604">
        <ele>676.374012</ele>
        <time>2025-04-06T10:31:02.774Z</time>
      </trkpt>
      <trkpt lat="48.682319" lon="9.917495">
        <ele>679.355694</ele>
        <time>2025-04-06T10:31:47.726Z</time>
      </trkpt>
      <trkpt lat="48.682373" lon="9.917492">
        <ele>679.445364</ele>
        <time>2025-04-06T10:31:48.981Z</time>
      </trkpt>
      <trkpt lat="48.684209" lon="9.917376">
        <ele>682.427662</ele>
        <time>2025-04-06T10:32:31.737Z</time>
      </trkpt>
      <trkpt lat="48.684195" lon="9.918875">
        <ele>683.982727</ele>
        <time>2025-04-06T10:32:54.313Z</time>
      </trkpt>
      <trkpt lat="48.684189" lon="9.919497">
        <ele>684.504516</ele>
        <time>2025-04-06T10:33:03.680Z</time>
      </trkpt>
      <trkpt lat="48.684164" lon="9.922201">
        <ele>686.802062</ele>
        <time>2025-04-06T10:33:44.342Z</time>
      </trkpt>
      <trkpt lat="48.685154" lon="9.922591">
        <ele>688.172400</ele>
        <time>2025-04-06T10:34:07.307Z</time>
      </trkpt>
      <trkpt lat="48.684969" lon="9.923222">
        <ele>688.855632</ele>
        <time>2025-04-06T10:34:18.161Z</time>
      </trkpt>
      <trkpt lat="48.684593" lon="9.924333">
        <ele>690.542417</ele>
        <time>2025-04-06T10:34:38.411Z</time>
      </trkpt>
      <trkpt lat="48.684509" lon="9.924570">
        <ele>690.905851</ele>
        <time>2025-04-06T10:34:42.758Z</time>
      </trkpt>
      <trkpt lat="48.684422" lon="9.924825">
        <ele>691.293664</ele>
        <time>2025-04-06T10:34:47.362Z</time>
      </trkpt>
      <trkpt lat="48.684361" lon="9.925010">
        <ele>691.573056</ele>
        <time>2025-04-06T10:34:50.642Z</time>
      </trkpt>
      <trkpt lat="48.684287" lon="9.925235">
        <ele>691.912684</ele>
        <time>2025-04-06T10:34:54.584Z</time>
      </trkpt>
      <trkpt lat="48.684645" lon="9.925342">
        <ele>692.468290</ele>
        <time>2025-04-06T10:35:02.894Z</time>
      </trkpt>
      <trkpt lat="48.686252" lon="9.925824">
        <ele>693.895912</ele>
        <time>2025-04-06T10:35:39.132Z</time>
      </trkpt>
      <trkpt lat="48.686634" lon="9.925904">
        <ele>693.999499</ele>
        <time>2025-04-06T10:35:48.126Z</time>
      </trkpt>
      <trkpt lat="48.687098" lon="9.926099">
        <ele>694.128845</ele>
        <time>2025-04-06T10:35:59.373Z</time>
      </trkpt>
      <trkpt lat="48.687210" lon="9.926137">
        <ele>694.159675</ele>
        <time>2025-04-06T10:36:02.018Z</time>
      </trkpt>
      <trkpt lat="48.687453" lon="9.926206">
        <ele>694.226085</ele>
        <time>2025-04-06T10:36:07.649Z</time>
      </trkpt>
      <trkpt lat="48.687629" lon="9.926288">
        <ele>694.275547</ele>
        <time>2025-04-06T10:36:11.667Z</time>
      </trkpt>
      <trkpt lat="48.687721" lon="9.926418">
        <ele>694.309343</ele>
        <time>2025-04-06T10:36:14.326Z</time>
      </trkpt>
      <trkpt lat="48.687828" lon="9.926260">
        <ele>694.349481</ele>
        <time>2025-04-06T10:36:17.289Z</time>
      </trkpt>
      <trkpt lat="48.688011" lon="9.926590">
        <ele>693.959034</ele>
        <time>2025-04-06T10:36:22.988Z</time>
      </trkpt>
      <trkpt lat="48.688282" lon="9.926879">
        <ele>693.172808</ele>
        <time>2025-04-06T10:36:29.122Z</time>
      </trkpt>
      <trkpt lat="48.688867" lon="9.927311">
        <ele>691.628897</ele>
        <time>2025-04-06T10:36:40.080Z</time>
      </trkpt>
      <trkpt lat="48.688950" lon="9.927410">
        <ele>691.378284</ele>
        <time>2025-04-06T10:36:41.846Z</time>
      </trkpt>
      <trkpt lat="48.688997" lon="9.928711">
        <ele>690.260293</ele>
        <time>2025-04-06T10:36:57.200Z</time>
      </trkpt>
      <trkpt lat="48.689473" lon="9.928805">
        <ele>690.479251</ele>
        <time>2025-04-06T10:37:07.299Z</time>
      </trkpt>
      <trkpt lat="48.689734" lon="9.928907">
        <ele>690.602201</ele>
        <time>2025-04-06T10:37:13.538Z</time>
      </trkpt>
      <trkpt lat="48.690113" lon="9.929056">
        <ele>690.780804</ele>
        <time>2025-04-06T10:37:23.060Z</time>
      </trkpt>
      <trkpt lat="48.690423" lon="9.929081">
        <ele>690.922407</ele>
        <time>2025-04-06T10:37:30.786Z</time>
      </trkpt>
      <trkpt lat="48.691127" lon="9.929047">
        <ele>691.685013</ele>
        <time>2025-04-06T10:37:47.950Z</time>
      </trkpt>
      <trkpt lat="48.691549" lon="9.928941">
        <ele>692.156355</ele>
        <time>2025-04-06T10:37:57.814Z</time>
      </trkpt>
      <trkpt lat="48.693180" lon="9.928532">
        <ele>691.588583</ele>
        <time>2025-04-06T10:38:30.809Z</time>
      </trkpt>
      <trkpt lat="48.693488" lon="9.929977">
        <ele>690.064595</ele>
        <time>2025-04-06T10:38:48.183Z</time>
      </trkpt>
      <trkpt lat="48.693552" lon="9.930281">
        <ele>689.590905</ele>
        <time>2025-04-06T10:38:51.734Z</time>
      </trkpt>
      <trkpt lat="48.693980" lon="9.932244">
        <ele>686.521955</ele>
        <time>2025-04-06T10:39:15.228Z</time>
      </trkpt>
      <trkpt lat="48.695576" lon="9.932738">
        <ele>682.853670</ele>
        <time>2025-04-06T10:39:45.551Z</time>
      </trkpt>
      <trkpt lat="48.697392" lon="9.933326">
        <ele>676.471989</ele>
        <time>2025-04-06T10:40:16.620Z</time>
      </trkpt>
      <trkpt lat="48.699067" lon="9.933848">
        <ele>670.701998</ele>
        <time>2025-04-06T10:40:44.678Z</time>
      </trkpt>
      <trkpt lat="48.701273" lon="9.934281">
        <ele>667.613737</ele>
        <time>2025-04-06T10:41:30.411Z</time>
      </trkpt>
      <trkpt lat="48.701650" lon="9.934560">
        <ele>666.963074</ele>
        <time>2025-04-06T10:41:38.580Z</time>
      </trkpt>
      <trkpt lat="48.703470" lon="9.936074">
        <ele>664.256247</ele>
        <time>2025-04-06T10:42:17.368Z</time>
      </trkpt>
      <trkpt lat="48.704214" lon="9.936863">
        <ele>663.384002</ele>
        <time>2025-04-06T10:42:37.049Z</time>
      </trkpt>
      <trkpt lat="48.705381" lon="9.938170">
        <ele>663.418617</ele>
        <time>2025-04-06T10:43:08.978Z</time>
      </trkpt>
      <trkpt lat="48.706340" lon="9.939245">
        <ele>663.723821</ele>
        <time>2025-04-06T10:43:35.331Z</time>
      </trkpt>
      <trkpt lat="48.707699" lon="9.940796">
        <ele>663.898233</ele>
        <time>2025-04-06T10:44:14.177Z</time>
      </trkpt>
      <trkpt lat="48.707801" lon="9.941021">
        <ele>663.856142</ele>
        <time>2025-04-06T10:44:18.062Z</time>
      </trkpt>
      <trkpt lat="48.707893" lon="9.942910">
        <ele>663.317309</ele>
        <time>2025-04-06T10:44:43.582Z</time>
      </trkpt>
      <trkpt lat="48.708045" lon="9.946231">
        <ele>661.252061</ele>
        <time>2025-04-06T10:45:26.409Z</time>
      </trkpt>
      <trkpt lat="48.711479" lon="9.946355">
        <ele>658.841551</ele>
        <time>2025-04-06T10:46:32.802Z</time>
      </trkpt>
      <trkpt lat="48.715212" lon="9.945691">
        <ele>663.344814</ele>
        <time>2025-04-06T10:47:59.025Z</time>
      </trkpt>
      <trkpt lat="48.716710" lon="9.945400">
        <ele>665.346524</ele>
        <time>2025-04-06T10:48:33.583Z</time>
      </trkpt>
      <trkpt lat="48.718189" lon="9.945163">
        <ele>667.093539</ele>
        <time>2025-04-06T10:49:06.889Z</time>
      </trkpt>
      <trkpt lat="48.718498" lon="9.945036">
        <ele>667.621514</ele>
        <time>2025-04-06T10:49:14.345Z</time>
      </trkpt>
      <trkpt lat="48.719264" lon="9.944706">
        <ele>668.934760</ele>
        <time>2025-04-06T10:49:41.022Z</time>
      </trkpt>
      <trkpt lat="48.720290" lon="9.944369">
        <ele>669.677496</ele>
        <time>2025-04-06T10:50:16.523Z</time>
      </trkpt>
      <trkpt lat="48.720466" lon="9.944366">
        <ele>669.635139</ele>
        <time>2025-04-06T10:50:22.609Z</time>
      </trkpt>
      <trkpt lat="48.721080" lon="9.944231">
        <ele>669.485837</ele>
        <time>2025-04-06T10:50:43.732Z</time>
      </trkpt>
      <trkpt lat="48.721686" lon="9.943979">
        <ele>669.342028</ele>
        <time>2025-04-06T10:51:04.148Z</time>
      </trkpt>
      <trkpt lat="48.722904" lon="9.943360">
        <ele>669.096664</ele>
        <time>2025-04-06T10:51:48.548Z</time>
      </trkpt>
      <trkpt lat="48.724741" lon="9.942109">
        <ele>671.644530</ele>
        <time>2025-04-06T10:52:56.424Z</time>
      </trkpt>
      <trkpt lat="48.725470" lon="9.941635">
        <ele>672.902005</ele>
        <time>2025-04-06T10:53:23.008Z</time>
      </trkpt>
      <trkpt lat="48.726052" lon="9.941434">
        <ele>673.847997</ele>
        <time>2025-04-06T10:53:43.073Z</time>
      </trkpt>
      <trkpt lat="48.726351" lon="9.941879">
        <ele>674.512050</ele>
        <time>2025-04-06T10:53:52.685Z</time>
      </trkpt>
      <trkpt lat="48.726813" lon="9.942340">
        <ele>674.460793</ele>
        <time>2025-04-06T10:54:04.617Z</time>
      </trkpt>
      <trkpt lat="48.726977" lon="9.942505">
        <ele>674.331720</ele>
        <time>2025-04-06T10:54:08.481Z</time>
      </trkpt>
      <trkpt lat="48.727681" lon="9.943032">
        <ele>673.816851</ele>
        <time>2025-04-06T10:54:23.601Z</time>
      </trkpt>
      <trkpt lat="48.728131" lon="9.943590">
        <ele>673.341124</ele>
        <time>2025-04-06T10:54:34.323Z</time>
      </trkpt>
      <trkpt lat="48.729959" lon="9.946181">
        <ele>670.251842</ele>
        <time>2025-04-06T10:55:22.062Z</time>
      </trkpt>
      <trkpt lat="48.731933" lon="9.949094">
        <ele>666.254420</ele>
        <time>2025-04-06T10:56:12.723Z</time>
      </trkpt>
      <trkpt lat="48.733029" lon="9.950805">
        <ele>663.961102</ele>
        <time>2025-04-06T10:56:41.112Z</time>
      </trkpt>
      <trkpt lat="48.735086" lon="9.954563">
        <ele>662.450113</ele>
        <time>2025-04-06T10:57:46.277Z</time>
      </trkpt>
      <trkpt lat="48.735792" lon="9.955869">
        <ele>662.698315</ele>
        <time>2025-04-06T10:58:10.436Z</time>
      </trkpt>
      <trkpt lat="48.735891" lon="9.956155">
        <ele>662.833686</ele>
        <time>2025-04-06T10:58:15.240Z</time>
      </trkpt>
      <trkpt lat="48.735880" lon="9.956304">
        <ele>662.896523</ele>
        <time>2025-04-06T10:58:17.445Z</time>
      </trkpt>
      <trkpt lat="48.735935" lon="9.956518">
        <ele>662.992781</ele>
        <time>2025-04-06T10:58:20.954Z</time>
      </trkpt>
      <trkpt lat="48.736023" lon="9.956707">
        <ele>663.089742</ele>
        <time>2025-04-06T10:58:24.471Z</time>
      </trkpt>
      <trkpt lat="48.736183" lon="9.957183">
        <ele>663.313651</ele>
        <time>2025-04-06T10:58:32.576Z</time>
      </trkpt>
      <trkpt lat="48.736258" lon="9.957406">
        <ele>663.418561</ele>
        <time>2025-04-06T10:58:36.378Z</time>
      </trkpt>
      <trkpt lat="48.736613" lon="9.958403">
        <ele>663.597360</ele>
        <time>2025-04-06T10:58:53.467Z</time>
      </trkpt>
      <trkpt lat="48.736942" lon="9.959240">
        <ele>663.705667</ele>
        <time>2025-04-06T10:59:07.468Z</time>
      </trkpt>
      <trkpt lat="48.737185" lon="9.959593">
        <ele>663.762385</ele>
        <time>2025-04-06T10:59:14.748Z</time>
      </trkpt>
      <trkpt lat="48.737352" lon="9.959900">
        <ele>663.770679</ele>
        <time>2025-04-06T10:59:20.461Z</time>
      </trkpt>
      <trkpt lat="48.737757" lon="9.961328">
        <ele>663.465046</ele>
        <time>2025-04-06T10:59:42.627Z</time>
      </trkpt>
      <trkpt lat="48.738220" lon="9.962530">
        <ele>663.037911</ele>
        <time>2025-04-06T11:00:02.108Z</time>
      </trkpt>
      <trkpt lat="48.738500" lon="9.963025">
        <ele>662.611847</ele>
        <time>2025-04-06T11:00:11.028Z</time>
      </trkpt>
      <trkpt lat="48.738767" lon="9.963357">
        <ele>662.269778</ele>
        <time>2025-04-06T11:00:18.047Z</time>
      </trkpt>
      <trkpt lat="48.739126" lon="9.963389">
        <ele>661.913518</ele>
        <time>2025-04-06T11:00:25.172Z</time>
      </trkpt>
      <trkpt lat="48.739217" lon="9.963458">
        <ele>661.812726</ele>
        <time>2025-04-06T11:00:27.163Z</time>
      </trkpt>
      <trkpt lat="48.739302" lon="9.963578">
        <ele>661.697673</ele>
        <time>2025-04-06T11:00:29.421Z</time>
      </trkpt>
      <trkpt lat="48.740182" lon="9.965777">
        <ele>658.914623</ele>
        <time>2025-04-06T11:01:01.578Z</time>
      </trkpt>
      <trkpt lat="48.740279" lon="9.966009">
        <ele>658.599477</ele>
        <time>2025-04-06T11:01:05.898Z</time>
      </trkpt>
      <trkpt lat="48.740411" lon="9.966314">
        <ele>658.151809</ele>
        <time>2025-04-06T11:01:11.642Z</time>
      </trkpt>
      <trkpt lat="48.741383" lon="9.967868">
        <ele>655.262404</ele>
        <time>2025-04-06T11:01:36.159Z</time>
      </trkpt>
      <trkpt lat="48.741422" lon="9.968086">
        <ele>654.957685</ele>
        <time>2025-04-06T11:01:38.817Z</time>
      </trkpt>
      <trkpt lat="48.741409" lon="9.968677">
        <ele>654.278279</ele>
        <time>2025-04-06T11:01:45.842Z</time>
      </trkpt>
      <trkpt lat="48.741313" lon="9.969606">
        <ele>653.305652</ele>
        <time>2025-04-06T11:01:57.160Z</time>
      </trkpt>
      <trkpt lat="48.740594" lon="9.973305">
        <ele>650.105200</ele>
        <time>2025-04-06T11:02:44.026Z</time>
      </trkpt>
      <trkpt lat="48.743554" lon="9.974866">
        <ele>651.264813</ele>
        <time>2025-04-06T11:03:55.575Z</time>
      </trkpt>
      <trkpt lat="48.745399" lon="9.976309">
        <ele>652.339037</ele>
        <time>2025-04-06T11:04:42.133Z</time>
      </trkpt>
      <trkpt lat="48.745758" lon="9.976572">
        <ele>652.545107</ele>
        <time>2025-04-06T11:04:51.451Z</time>
      </trkpt>
      <trkpt lat="48.746130" lon="9.976993">
        <ele>652.695369</ele>
        <time>2025-04-06T11:05:02.417Z</time>
      </trkpt>
      <trkpt lat="48.746293" lon="9.977282">
        <ele>652.776548</ele>
        <time>2025-04-06T11:05:08.327Z</time>
      </trkpt>
      <trkpt lat="48.746427" lon="9.977617">
        <ele>652.860186</ele>
        <time>2025-04-06T11:05:14.361Z</time>
      </trkpt>
      <trkpt lat="48.746527" lon="9.977949">
        <ele>652.938099</ele>
        <time>2025-04-06T11:05:19.864Z</time>
      </trkpt>
      <trkpt lat="48.747485" lon="9.982150">
        <ele>648.863443</ele>
        <time>2025-04-06T11:06:17.586Z</time>
      </trkpt>
      <trkpt lat="48.747576" lon="9.982551">
        <ele>647.936667</ele>
        <time>2025-04-06T11:06:22.194Z</time>
      </trkpt>
      <trkpt lat="48.747642" lon="9.982996">
        <ele>646.939886</ele>
        <time>2025-04-06T11:06:27.055Z</time>
      </trkpt>
      <trkpt lat="48.747763" lon="9.984993">
        <ele>642.883205</ele>
        <time>2025-04-06T11:06:48.476Z</time>
      </trkpt>
      <trkpt lat="48.748596" lon="9.985093">
        <ele>640.515224</ele>
        <time>2025-04-06T11:07:03.359Z</time>
      </trkpt>
      <trkpt lat="48.749425" lon="9.985253">
        <ele>639.515318</ele>
        <time>2025-04-06T11:07:20.677Z</time>
      </trkpt>
      <trkpt lat="48.749793" lon="9.985459">
        <ele>639.377972</ele>
        <time>2025-04-06T11:07:29.117Z</time>
      </trkpt>
      <trkpt lat="48.750094" lon="9.985703">
        <ele>639.258472</ele>
        <time>2025-04-06T11:07:36.583Z</time>
      </trkpt>
      <trkpt lat="48.750230" lon="9.985814">
        <ele>639.204397</ele>
        <time>2025-04-06T11:07:40.017Z</time>
      </trkpt>
      <trkpt lat="48.750873" lon="9.985986">
        <ele>639.099998</ele>
        <time>2025-04-06T11:07:54.603Z</time>
      </trkpt>
      <trkpt lat="48.751552" lon="9.986128">
        <ele>639.150387</ele>
        <time>2025-04-06T11:08:08.877Z</time>
      </trkpt>
      <trkpt lat="48.752094" lon="9.987374">
        <ele>639.210671</ele>
        <time>2025-04-06T11:08:29.867Z</time>
      </trkpt>
      <trkpt lat="48.752202" lon="9.987305">
        <ele>639.210671</ele>
        <time>2025-04-06T11:08:32.551Z</time>
      </trkpt>
      <trkpt lat="48.752758" lon="9.987405">
        <ele>639.210671</ele>
        <time>2025-04-06T11:08:45.855Z</time>
      </trkpt>
      <trkpt lat="48.753028" lon="9.987394">
        <ele>639.210671</ele>
        <time>2025-04-06T11:08:52.571Z</time>
      </trkpt>
      <trkpt lat="48.753121" lon="9.987383">
        <ele>639.210671</ele>
        <time>2025-04-06T11:08:54.901Z</time>
      </trkpt>
      <trkpt lat="48.753434" lon="9.987346">
        <ele>639.210671</ele>
        <time>2025-04-06T11:09:02.760Z</time>
      </trkpt>
      <trkpt lat="48.753659" lon="9.987326">
        <ele>639.210671</ele>
        <time>2025-04-06T11:09:08.333Z</time>
      </trkpt>
      <trkpt lat="48.753831" lon="9.987320">
        <ele>639.210671</ele>
        <time>2025-04-06T11:09:12.544Z</time>
      </trkpt>
      <trkpt lat="48.753869" lon="9.987196">
        <ele>639.210671</ele>
        <time>2025-04-06T11:09:14.792Z</time>
      </trkpt>
    </trkseg>
  </trk>
</gpx>